<?xml version="1.0" encoding="UTF-8" standalone="no"?><gpx version="1.1" creator="GPX Editor 1.6.11.1624" xmlns="http://www.topografix.com/GPX/1/1" xmlns:gpxx="http://www.garmin.com/xmlschemas/GpxExtensions/v3" xmlns:gpxtrkx="http://www.garmin.com/xmlschemas/TrackStatsExtension/v1" xmlns:wptx1="http://www.garmin.com/xmlschemas/WaypointExtension/v1" xmlns:gpxtpx="http://www.garmin.com/xmlschemas/TrackPointExtension/v1" xmlns:xsi="http://www.w3.org/2001/XMLSchema-instance" xsi:schemaLocation="http://www.topografix.com/GPX/1/1 http://www.topografix.com/GPX/1/1/gpx.xsd http://www.garmin.com/xmlschemas/GpxExtensions/v3 http://www8.garmin.com/xmlschemas/GpxExtensionsv3.xsd http://www.garmin.com/xmlschemas/TrackStatsExtension/v1 http://www8.garmin.com/xmlschemas/TrackStatsExtension.xsd http://www.garmin.com/xmlschemas/WaypointExtension/v1 http://www8.garmin.com/xmlschemas/WaypointExtensionv1.xsd http://www.garmin.com/xmlschemas/TrackPointExtension/v1 http://www.garmin.com/xmlschemas/TrackPointExtensionv1.xsd"><metadata>	<link href="http://www.garmin.com"><text>Garmin International</text>	</link><time>2019-02-15T08:21:04Z</time>	<bounds minlat="52.8282387368" minlon="8.3057370689" maxlat="52.9168093018" maxlon="8.488505641" /></metadata><trk><name>2019-02-14 13:38:05 Tag</name><extensions><line xmlns="http://www.topografix.com/GPX/gpx_style/0/2"><color>000000</color></line><gpxx:TrackExtension><gpxx:DisplayColor>Cyan</gpxx:DisplayColor></gpxx:TrackExtension></extensions><trkseg><trkpt lat="52.9027519282" lon="8.4527588356"><ele>25.65</ele><time>2019-02-14T12:45:50Z</time></trkpt><trkpt lat="52.9027489107" lon="8.4527573269"><ele>25.65</ele><time>2019-02-14T12:45:51Z</time></trkpt><trkpt lat="52.9026944283" lon="8.4527145792"><ele>24.81</ele><time>2019-02-14T12:46:08Z</time></trkpt><trkpt lat="52.9026106931" lon="8.4529192653"><ele>24.29</ele><time>2019-02-14T12:46:16Z</time></trkpt><trkpt lat="52.9026192427" lon="8.4529822133"><ele>24.17</ele><time>2019-02-14T12:46:17Z</time></trkpt><trkpt lat="52.9027614836" lon="8.4539292008"><ele>23.51</ele><time>2019-02-14T12:46:29Z</time></trkpt><trkpt lat="52.9027712904" lon="8.4540146124"><ele>23.56</ele><time>2019-02-14T12:46:30Z</time></trkpt><trkpt lat="52.9028249346" lon="8.4544270858"><ele>23.8</ele><time>2019-02-14T12:46:35Z</time></trkpt><trkpt lat="52.9028440453" lon="8.4545913711"><ele>23.87</ele><time>2019-02-14T12:46:37Z</time></trkpt><trkpt lat="52.9028552771" lon="8.4546717536"><ele>23.94</ele><time>2019-02-14T12:46:38Z</time></trkpt><trkpt lat="52.9029225837" lon="8.4552692994"><ele>24.24</ele><time>2019-02-14T12:46:45Z</time></trkpt><trkpt lat="52.9029175546" lon="8.4553518612"><ele>24.25</ele><time>2019-02-14T12:46:46Z</time></trkpt><trkpt lat="52.902903473" lon="8.4554361831"><ele>24.25</ele><time>2019-02-14T12:46:47Z</time></trkpt><trkpt lat="52.9028914869" lon="8.4555250313"><ele>24.21</ele><time>2019-02-14T12:46:48Z</time></trkpt><trkpt lat="52.9028852005" lon="8.4556149691"><ele>24.14</ele><time>2019-02-14T12:46:49Z</time></trkpt><trkpt lat="52.9028850328" lon="8.4557059966"><ele>24.07</ele><time>2019-02-14T12:46:50Z</time></trkpt><trkpt lat="52.9028881341" lon="8.4557976946"><ele>23.98</ele><time>2019-02-14T12:46:51Z</time></trkpt><trkpt lat="52.9028874636" lon="8.4558870457"><ele>23.92</ele><time>2019-02-14T12:46:52Z</time></trkpt><trkpt lat="52.9028795008" lon="8.4559742175"><ele>23.87</ele><time>2019-02-14T12:46:53Z</time></trkpt><trkpt lat="52.9028646648" lon="8.4560592938"><ele>23.83</ele><time>2019-02-14T12:46:54Z</time></trkpt><trkpt lat="52.9028360825" lon="8.4562307037"><ele>23.76</ele><time>2019-02-14T12:46:56Z</time></trkpt><trkpt lat="52.9027302191" lon="8.4571253881"><ele>23.69</ele><time>2019-02-14T12:47:06Z</time></trkpt><trkpt lat="52.9026857112" lon="8.4573858976"><ele>23.65</ele><time>2019-02-14T12:47:09Z</time></trkpt><trkpt lat="52.9026628286" lon="8.4574711416"><ele>23.62</ele><time>2019-02-14T12:47:10Z</time></trkpt><trkpt lat="52.9025923368" lon="8.4577203356"><ele>23.57</ele><time>2019-02-14T12:47:13Z</time></trkpt><trkpt lat="52.9022552166" lon="8.4586640541"><ele>23.89</ele><time>2019-02-14T12:47:25Z</time></trkpt><trkpt lat="52.9020621814" lon="8.4592241328"><ele>24.48</ele><time>2019-02-14T12:47:32Z</time></trkpt><trkpt lat="52.9019570723" lon="8.4595234506"><ele>24.88</ele><time>2019-02-14T12:47:36Z</time></trkpt><trkpt lat="52.9018819705" lon="8.4596510231"><ele>25.03</ele><time>2019-02-14T12:47:38Z</time></trkpt><trkpt lat="52.9018028453" lon="8.459771974"><ele>25.12</ele><time>2019-02-14T12:47:40Z</time></trkpt><trkpt lat="52.9017728381" lon="8.4598477464"><ele>25.16</ele><time>2019-02-14T12:47:41Z</time></trkpt><trkpt lat="52.9017471056" lon="8.4599329904"><ele>25.18</ele><time>2019-02-14T12:47:42Z</time></trkpt><trkpt lat="52.9017297551" lon="8.4600168094"><ele>25.2</ele><time>2019-02-14T12:47:43Z</time></trkpt><trkpt lat="52.9017095547" lon="8.4600995388"><ele>25.23</ele><time>2019-02-14T12:47:44Z</time></trkpt><trkpt lat="52.9016817268" lon="8.4601719584"><ele>25.26</ele><time>2019-02-14T12:47:45Z</time></trkpt><trkpt lat="52.901652474" lon="8.4602454677"><ele>25.31</ele><time>2019-02-14T12:47:46Z</time></trkpt><trkpt lat="52.9012555908" lon="8.4613475204"><ele>26.93</ele><time>2019-02-14T12:48:00Z</time></trkpt><trkpt lat="52.9008654132" lon="8.4625673387"><ele>27.43</ele><time>2019-02-14T12:48:15Z</time></trkpt><trkpt lat="52.9008434527" lon="8.4626477212"><ele>27.45</ele><time>2019-02-14T12:48:16Z</time></trkpt><trkpt lat="52.9006644152" lon="8.4635813814"><ele>28.04</ele><time>2019-02-14T12:48:27Z</time></trkpt><trkpt lat="52.9005499184" lon="8.4649320412"><ele>28.46</ele><time>2019-02-14T12:48:42Z</time></trkpt><trkpt lat="52.9004735593" lon="8.4660883248"><ele>28.88</ele><time>2019-02-14T12:48:55Z</time></trkpt><trkpt lat="52.9004634172" lon="8.4678125661"><ele>29.33</ele><time>2019-02-14T12:49:14Z</time></trkpt><trkpt lat="52.9005055781" lon="8.4693398327"><ele>29.95</ele><time>2019-02-14T12:49:31Z</time></trkpt><trkpt lat="52.900526952" lon="8.4706912469"><ele>30.78</ele><time>2019-02-14T12:49:46Z</time></trkpt><trkpt lat="52.9005027283" lon="8.4707759041"><ele>30.87</ele><time>2019-02-14T12:49:47Z</time></trkpt><trkpt lat="52.9004569631" lon="8.4708284587"><ele>30.96</ele><time>2019-02-14T12:49:48Z</time></trkpt><trkpt lat="52.9004039057" lon="8.4708598908"><ele>31.02</ele><time>2019-02-14T12:49:49Z</time></trkpt><trkpt lat="52.9003496747" lon="8.4708858747"><ele>31.04</ele><time>2019-02-14T12:49:50Z</time></trkpt><trkpt lat="52.8994093928" lon="8.4712198097"><ele>31.46</ele><time>2019-02-14T12:50:07Z</time></trkpt><trkpt lat="52.8988620546" lon="8.4714107495"><ele>31.67</ele><time>2019-02-14T12:50:17Z</time></trkpt><trkpt lat="52.8988101706" lon="8.4714432713"><ele>31.67</ele><time>2019-02-14T12:50:18Z</time></trkpt><trkpt lat="52.8980564699" lon="8.4719377197"><ele>31.92</ele><time>2019-02-14T12:50:33Z</time></trkpt><trkpt lat="52.8979162406" lon="8.4720586706"><ele>31.82</ele><time>2019-02-14T12:50:36Z</time></trkpt><trkpt lat="52.8978734929" lon="8.472093707"><ele>31.75</ele><time>2019-02-14T12:50:37Z</time></trkpt><trkpt lat="52.897778945" lon="8.4721782804"><ele>31.58</ele><time>2019-02-14T12:50:39Z</time></trkpt><trkpt lat="52.8976822179" lon="8.4722563997"><ele>31.45</ele><time>2019-02-14T12:50:41Z</time></trkpt><trkpt lat="52.8971424233" lon="8.4727768321"><ele>30.83</ele><time>2019-02-14T12:50:52Z</time></trkpt><trkpt lat="52.8968899604" lon="8.4730059095"><ele>30.66</ele><time>2019-02-14T12:50:57Z</time></trkpt><trkpt lat="52.8968374897" lon="8.4730545245"><ele>30.6</ele><time>2019-02-14T12:50:58Z</time></trkpt><trkpt lat="52.8967871983" lon="8.4730999544"><ele>30.51</ele><time>2019-02-14T12:50:59Z</time></trkpt><trkpt lat="52.8964905627" lon="8.4733582009"><ele>30.15</ele><time>2019-02-14T12:51:05Z</time></trkpt><trkpt lat="52.8964446299" lon="8.4734056424"><ele>30.15</ele><time>2019-02-14T12:51:06Z</time></trkpt><trkpt lat="52.8963966016" lon="8.4734478034"><ele>30.15</ele><time>2019-02-14T12:51:07Z</time></trkpt><trkpt lat="52.8959739022" lon="8.4738138411"><ele>30.06</ele><time>2019-02-14T12:51:15Z</time></trkpt><trkpt lat="52.8958250396" lon="8.4739499632"><ele>29.96</ele><time>2019-02-14T12:51:18Z</time></trkpt><trkpt lat="52.8957781848" lon="8.4739958122"><ele>29.96</ele><time>2019-02-14T12:51:19Z</time></trkpt><trkpt lat="52.895732671" lon="8.4740426671"><ele>29.96</ele><time>2019-02-14T12:51:20Z</time></trkpt><trkpt lat="52.8956880793" lon="8.4740800504"><ele>29.96</ele><time>2019-02-14T12:51:21Z</time></trkpt><trkpt lat="52.8956433199" lon="8.4741035197"><ele>29.97</ele><time>2019-02-14T12:51:22Z</time></trkpt><trkpt lat="52.8955982253" lon="8.4741391428"><ele>29.97</ele><time>2019-02-14T12:51:23Z</time></trkpt><trkpt lat="52.8955505323" lon="8.4741809685"><ele>29.99</ele><time>2019-02-14T12:51:24Z</time></trkpt><trkpt lat="52.8955057729" lon="8.474227488"><ele>30.02</ele><time>2019-02-14T12:51:25Z</time></trkpt><trkpt lat="52.8954614326" lon="8.474272415"><ele>30.04</ele><time>2019-02-14T12:51:26Z</time></trkpt><trkpt lat="52.8953681421" lon="8.474353468"><ele>30.01</ele><time>2019-02-14T12:51:28Z</time></trkpt><trkpt lat="52.8951644618" lon="8.4745182563"><ele>29.92</ele><time>2019-02-14T12:51:32Z</time></trkpt><trkpt lat="52.8951182775" lon="8.4745627642"><ele>29.88</ele><time>2019-02-14T12:51:33Z</time></trkpt><trkpt lat="52.8946293611" lon="8.4750075918"><ele>29.33</ele><time>2019-02-14T12:51:43Z</time></trkpt><trkpt lat="52.8945809137" lon="8.4750522673"><ele>29.33</ele><time>2019-02-14T12:51:44Z</time></trkpt><trkpt lat="52.8943774011" lon="8.47521035"><ele>29.39</ele><time>2019-02-14T12:51:48Z</time></trkpt><trkpt lat="52.894062493" lon="8.4755079076"><ele>29.13</ele><time>2019-02-14T12:51:54Z</time></trkpt><trkpt lat="52.8939538635" lon="8.4755962528"><ele>28.92</ele><time>2019-02-14T12:51:56Z</time></trkpt><trkpt lat="52.8939012252" lon="8.4756551776"><ele>28.83</ele><time>2019-02-14T12:51:57Z</time></trkpt><trkpt lat="52.8938441444" lon="8.4757149406"><ele>28.75</ele><time>2019-02-14T12:51:58Z</time></trkpt><trkpt lat="52.8935721517" lon="8.4759638831"><ele>28.71</ele><time>2019-02-14T12:52:03Z</time></trkpt><trkpt lat="52.8933141567" lon="8.4762088023"><ele>28.78</ele><time>2019-02-14T12:52:08Z</time></trkpt><trkpt lat="52.8932628594" lon="8.4762625303"><ele>28.79</ele><time>2019-02-14T12:52:09Z</time></trkpt><trkpt lat="52.8930549882" lon="8.4764546435"><ele>28.79</ele><time>2019-02-14T12:52:13Z</time></trkpt><trkpt lat="52.89280219" lon="8.4767118003"><ele>28.81</ele><time>2019-02-14T12:52:18Z</time></trkpt><trkpt lat="52.8924611304" lon="8.4770266246"><ele>29.26</ele><time>2019-02-14T12:52:25Z</time></trkpt><trkpt lat="52.8921702784" lon="8.477308508"><ele>29.67</ele><time>2019-02-14T12:52:31Z</time></trkpt><trkpt lat="52.8919751476" lon="8.4774711169"><ele>29.71</ele><time>2019-02-14T12:52:35Z</time></trkpt><trkpt lat="52.891874481" lon="8.4775672574"><ele>29.73</ele><time>2019-02-14T12:52:37Z</time></trkpt><trkpt lat="52.8918250278" lon="8.4776121844"><ele>29.72</ele><time>2019-02-14T12:52:38Z</time></trkpt><trkpt lat="52.8917747363" lon="8.4776564408"><ele>29.72</ele><time>2019-02-14T12:52:39Z</time></trkpt><trkpt lat="52.8917236906" lon="8.4777024575"><ele>29.72</ele><time>2019-02-14T12:52:40Z</time></trkpt><trkpt lat="52.8916732315" lon="8.4777530003"><ele>29.73</ele><time>2019-02-14T12:52:41Z</time></trkpt><trkpt lat="52.8911251388" lon="8.4782553278"><ele>29.41</ele><time>2019-02-14T12:52:52Z</time></trkpt><trkpt lat="52.8909311816" lon="8.4784203675"><ele>29.24</ele><time>2019-02-14T12:52:56Z</time></trkpt><trkpt lat="52.8908853326" lon="8.4784385562"><ele>29.22</ele><time>2019-02-14T12:52:57Z</time></trkpt><trkpt lat="52.8908409085" lon="8.4784363769"><ele>29.24</ele><time>2019-02-14T12:52:58Z</time></trkpt><trkpt lat="52.8907869291" lon="8.478325652"><ele>29.24</ele><time>2019-02-14T12:53:00Z</time></trkpt><trkpt lat="52.8907815646" lon="8.4782512207"><ele>29.23</ele><time>2019-02-14T12:53:01Z</time></trkpt><trkpt lat="52.8907789662" lon="8.478173269"><ele>29.22</ele><time>2019-02-14T12:53:02Z</time></trkpt><trkpt lat="52.890777709" lon="8.478088947"><ele>29.21</ele><time>2019-02-14T12:53:03Z</time></trkpt><trkpt lat="52.8907740209" lon="8.4779289365"><ele>29.2</ele><time>2019-02-14T12:53:05Z</time></trkpt><trkpt lat="52.8907732666" lon="8.4778463747"><ele>29.18</ele><time>2019-02-14T12:53:06Z</time></trkpt><trkpt lat="52.8907895274" lon="8.4773489926"><ele>29.07</ele><time>2019-02-14T12:53:12Z</time></trkpt><trkpt lat="52.8907942213" lon="8.477186216"><ele>29.13</ele><time>2019-02-14T12:53:14Z</time></trkpt><trkpt lat="52.890806878" lon="8.4762544837"><ele>29.22</ele><time>2019-02-14T12:53:25Z</time></trkpt><trkpt lat="52.890797155" lon="8.4760808107"><ele>29.15</ele><time>2019-02-14T12:53:27Z</time></trkpt><trkpt lat="52.8908005916" lon="8.4759997576"><ele>29.13</ele><time>2019-02-14T12:53:28Z</time></trkpt><trkpt lat="52.8908098117" lon="8.4759201296"><ele>29.12</ele><time>2019-02-14T12:53:29Z</time></trkpt><trkpt lat="52.890825402" lon="8.4758442733"><ele>29.13</ele><time>2019-02-14T12:53:30Z</time></trkpt><trkpt lat="52.8908354603" lon="8.4757634718"><ele>29.17</ele><time>2019-02-14T12:53:31Z</time></trkpt><trkpt lat="52.8908456862" lon="8.4756835923"><ele>29.2</ele><time>2019-02-14T12:53:32Z</time></trkpt><trkpt lat="52.8908544034" lon="8.4756029584"><ele>29.22</ele><time>2019-02-14T12:53:33Z</time></trkpt><trkpt lat="52.8908616118" lon="8.4755176306"><ele>29.21</ele><time>2019-02-14T12:53:34Z</time></trkpt><trkpt lat="52.8908927087" lon="8.475203393"><ele>29.13</ele><time>2019-02-14T12:53:38Z</time></trkpt><trkpt lat="52.8909310978" lon="8.4749075957"><ele>29.22</ele><time>2019-02-14T12:53:42Z</time></trkpt><trkpt lat="52.8909528069" lon="8.4745101258"><ele>29.2</ele><time>2019-02-14T12:53:47Z</time></trkpt><trkpt lat="52.8909633681" lon="8.4744313359"><ele>29.16</ele><time>2019-02-14T12:53:48Z</time></trkpt><trkpt lat="52.8909761086" lon="8.4742701519"><ele>29.11</ele><time>2019-02-14T12:53:50Z</time></trkpt><trkpt lat="52.8909635358" lon="8.4741710778"><ele>29.11</ele><time>2019-02-14T12:53:51Z</time></trkpt><trkpt lat="52.8909275774" lon="8.473868072"><ele>29.11</ele><time>2019-02-14T12:53:54Z</time></trkpt><trkpt lat="52.8909120709" lon="8.4737648908"><ele>29.13</ele><time>2019-02-14T12:53:55Z</time></trkpt><trkpt lat="52.8908285033" lon="8.4727973677"><ele>29.51</ele><time>2019-02-14T12:54:05Z</time></trkpt><trkpt lat="52.8908020165" lon="8.472051546"><ele>29.69</ele><time>2019-02-14T12:54:13Z</time></trkpt><trkpt lat="52.8907782957" lon="8.4717633761"><ele>29.63</ele><time>2019-02-14T12:54:16Z</time></trkpt><trkpt lat="52.8907471988" lon="8.4715702571"><ele>29.54</ele><time>2019-02-14T12:54:18Z</time></trkpt><trkpt lat="52.8906307742" lon="8.4710163809"><ele>29.11</ele><time>2019-02-14T12:54:24Z</time></trkpt><trkpt lat="52.8905866016" lon="8.4707458131"><ele>28.89</ele><time>2019-02-14T12:54:27Z</time></trkpt><trkpt lat="52.8904661536" lon="8.4699509572"><ele>28.81</ele><time>2019-02-14T12:54:38Z</time></trkpt><trkpt lat="52.8903885372" lon="8.4698526375"><ele>28.89</ele><time>2019-02-14T12:54:40Z</time></trkpt><trkpt lat="52.8903431911" lon="8.4698512964"><ele>28.95</ele><time>2019-02-14T12:54:41Z</time></trkpt><trkpt lat="52.8902876191" lon="8.4698418248"><ele>29.04</ele><time>2019-02-14T12:54:42Z</time></trkpt><trkpt lat="52.889361335" lon="8.4696323611"><ele>28.77</ele><time>2019-02-14T12:54:58Z</time></trkpt><trkpt lat="52.8885393217" lon="8.4694394097"><ele>28.54</ele><time>2019-02-14T12:55:13Z</time></trkpt><trkpt lat="52.8877017181" lon="8.4692471288"><ele>28.58</ele><time>2019-02-14T12:55:28Z</time></trkpt><trkpt lat="52.8871501051" lon="8.4691595379"><ele>28.01</ele><time>2019-02-14T12:55:37Z</time></trkpt><trkpt lat="52.887106603" lon="8.4690910578"><ele>27.88</ele><time>2019-02-14T12:55:38Z</time></trkpt><trkpt lat="52.8870916832" lon="8.4689994436"><ele>27.69</ele><time>2019-02-14T12:55:39Z</time></trkpt><trkpt lat="52.8870970476" lon="8.4688968491"><ele>27.48</ele><time>2019-02-14T12:55:40Z</time></trkpt><trkpt lat="52.8871066868" lon="8.4687892254"><ele>27.31</ele><time>2019-02-14T12:55:41Z</time></trkpt><trkpt lat="52.8871044237" lon="8.4686838649"><ele>27.15</ele><time>2019-02-14T12:55:42Z</time></trkpt><trkpt lat="52.8870765958" lon="8.4685992915"><ele>27</ele><time>2019-02-14T12:55:43Z</time></trkpt><trkpt lat="52.887027394" lon="8.4685505927"><ele>26.87</ele><time>2019-02-14T12:55:44Z</time></trkpt><trkpt lat="52.8869717382" lon="8.4685216751"><ele>26.75</ele><time>2019-02-14T12:55:45Z</time></trkpt><trkpt lat="52.8869124781" lon="8.468507845"><ele>26.62</ele><time>2019-02-14T12:55:46Z</time></trkpt><trkpt lat="52.8868489433" lon="8.4684993792"><ele>26.5</ele><time>2019-02-14T12:55:47Z</time></trkpt><trkpt lat="52.8865978215" lon="8.4685349185"><ele>25.83</ele><time>2019-02-14T12:55:53Z</time></trkpt><trkpt lat="52.8864502162" lon="8.4689016268"><ele>25.29</ele><time>2019-02-14T12:55:58Z</time></trkpt><trkpt lat="52.8863360547" lon="8.4692214802"><ele>24.61</ele><time>2019-02-14T12:56:02Z</time></trkpt><trkpt lat="52.8863097355" lon="8.469300773"><ele>24.4</ele><time>2019-02-14T12:56:03Z</time></trkpt><trkpt lat="52.8862829972" lon="8.4693793114"><ele>24.16</ele><time>2019-02-14T12:56:04Z</time></trkpt><trkpt lat="52.8862513974" lon="8.4694635496"><ele>23.94</ele><time>2019-02-14T12:56:05Z</time></trkpt><trkpt lat="52.8862166964" lon="8.4695482906"><ele>23.74</ele><time>2019-02-14T12:56:06Z</time></trkpt><trkpt lat="52.8859515768" lon="8.4701584093"><ele>23.18</ele><time>2019-02-14T12:56:14Z</time></trkpt><trkpt lat="52.885910254" lon="8.4702267218"><ele>23.18</ele><time>2019-02-14T12:56:15Z</time></trkpt><trkpt lat="52.8850745782" lon="8.4712380823"><ele>23.4</ele><time>2019-02-14T12:56:33Z</time></trkpt><trkpt lat="52.8841456957" lon="8.4722643625"><ele>23.23</ele><time>2019-02-14T12:56:53Z</time></trkpt><trkpt lat="52.8832018096" lon="8.4732984379"><ele>23.83</ele><time>2019-02-14T12:57:13Z</time></trkpt><trkpt lat="52.8823497891" lon="8.4741569962"><ele>23.73</ele><time>2019-02-14T12:57:30Z</time></trkpt><trkpt lat="52.8814621456" lon="8.4748079348"><ele>25.09</ele><time>2019-02-14T12:57:47Z</time></trkpt><trkpt lat="52.8806448262" lon="8.475420149"><ele>24.87</ele><time>2019-02-14T12:58:03Z</time></trkpt><trkpt lat="52.8795692604" lon="8.4761819802"><ele>24.57</ele><time>2019-02-14T12:58:24Z</time></trkpt><trkpt lat="52.8784171678" lon="8.4770154767"><ele>24.62</ele><time>2019-02-14T12:58:47Z</time></trkpt><trkpt lat="52.877400443" lon="8.477732297"><ele>24.64</ele><time>2019-02-14T12:59:07Z</time></trkpt><trkpt lat="52.8764384519" lon="8.4784162603"><ele>25.7</ele><time>2019-02-14T12:59:27Z</time></trkpt><trkpt lat="52.8754589427" lon="8.4790948592"><ele>27.04</ele><time>2019-02-14T12:59:48Z</time></trkpt><trkpt lat="52.8750618082" lon="8.4793904889"><ele>27.45</ele><time>2019-02-14T12:59:57Z</time></trkpt><trkpt lat="52.875013696" lon="8.4794277046"><ele>27.45</ele><time>2019-02-14T12:59:58Z</time></trkpt><trkpt lat="52.8749637399" lon="8.4794624895"><ele>27.45</ele><time>2019-02-14T12:59:59Z</time></trkpt><trkpt lat="52.873899322" lon="8.4800077323"><ele>26.27</ele><time>2019-02-14T13:00:18Z</time></trkpt><trkpt lat="52.8731890395" lon="8.4805326909"><ele>24.34</ele><time>2019-02-14T13:00:30Z</time></trkpt><trkpt lat="52.8730188031" lon="8.480646098"><ele>24.06</ele><time>2019-02-14T13:00:33Z</time></trkpt><trkpt lat="52.8729113471" lon="8.4806880914"><ele>24.06</ele><time>2019-02-14T13:00:35Z</time></trkpt><trkpt lat="52.8724887315" lon="8.4808341041"><ele>25.51</ele><time>2019-02-14T13:00:45Z</time></trkpt><trkpt lat="52.8718703147" lon="8.4810797777"><ele>27.98</ele><time>2019-02-14T13:00:59Z</time></trkpt><trkpt lat="52.8709871136" lon="8.4814763255"><ele>29.65</ele><time>2019-02-14T13:01:17Z</time></trkpt><trkpt lat="52.8699469194" lon="8.4821001906"><ele>30.24</ele><time>2019-02-14T13:01:39Z</time></trkpt><trkpt lat="52.8695125692" lon="8.4824099857"><ele>30.72</ele><time>2019-02-14T13:01:49Z</time></trkpt><trkpt lat="52.8694693185" lon="8.4824384842"><ele>30.78</ele><time>2019-02-14T13:01:50Z</time></trkpt><trkpt lat="52.8694307618" lon="8.4824707545"><ele>30.86</ele><time>2019-02-14T13:01:51Z</time></trkpt><trkpt lat="52.8693554923" lon="8.4825352952"><ele>31.12</ele><time>2019-02-14T13:01:53Z</time></trkpt><trkpt lat="52.8693110682" lon="8.4825543221"><ele>31.22</ele><time>2019-02-14T13:01:54Z</time></trkpt><trkpt lat="52.8692675661" lon="8.4825754445"><ele>31.3</ele><time>2019-02-14T13:01:55Z</time></trkpt><trkpt lat="52.8691795561" lon="8.4826250654"><ele>31.38</ele><time>2019-02-14T13:01:57Z</time></trkpt><trkpt lat="52.8691320308" lon="8.4826526418"><ele>31.37</ele><time>2019-02-14T13:01:58Z</time></trkpt><trkpt lat="52.8682384361" lon="8.4832177497"><ele>31.45</ele><time>2019-02-14T13:02:17Z</time></trkpt><trkpt lat="52.8675206937" lon="8.4837509226"><ele>33.36</ele><time>2019-02-14T13:02:34Z</time></trkpt><trkpt lat="52.8664524201" lon="8.4844831657"><ele>35.27</ele><time>2019-02-14T13:02:59Z</time></trkpt><trkpt lat="52.86528809" lon="8.4852924384"><ele>34.56</ele><time>2019-02-14T13:03:24Z</time></trkpt><trkpt lat="52.8641702794" lon="8.4860527609"><ele>33.72</ele><time>2019-02-14T13:03:49Z</time></trkpt><trkpt lat="52.8630517982" lon="8.486852143"><ele>32.96</ele><time>2019-02-14T13:04:13Z</time></trkpt><trkpt lat="52.8622817528" lon="8.4870834835"><ele>33.51</ele><time>2019-02-14T13:04:30Z</time></trkpt><trkpt lat="52.8614942729" lon="8.4869647119"><ele>36.45</ele><time>2019-02-14T13:04:48Z</time></trkpt><trkpt lat="52.8606333677" lon="8.4868738521"><ele>38.09</ele><time>2019-02-14T13:05:07Z</time></trkpt><trkpt lat="52.8604954015" lon="8.4868586808"><ele>38.04</ele><time>2019-02-14T13:05:10Z</time></trkpt><trkpt lat="52.8597665112" lon="8.4867743589"><ele>37.74</ele><time>2019-02-14T13:05:25Z</time></trkpt><trkpt lat="52.8585831542" lon="8.4866014402"><ele>37.22</ele><time>2019-02-14T13:05:47Z</time></trkpt><trkpt lat="52.857505912" lon="8.4864516556"><ele>35.91</ele><time>2019-02-14T13:06:06Z</time></trkpt><trkpt lat="52.8565752693" lon="8.4865045454"><ele>37.5</ele><time>2019-02-14T13:06:25Z</time></trkpt><trkpt lat="52.8553917445" lon="8.487092033"><ele>37</ele><time>2019-02-14T13:06:47Z</time></trkpt><trkpt lat="52.8542032745" lon="8.4876429755"><ele>33.99</ele><time>2019-02-14T13:07:06Z</time></trkpt><trkpt lat="52.853541607" lon="8.4879833646"><ele>35.4</ele><time>2019-02-14T13:07:21Z</time></trkpt><trkpt lat="52.8528236132" lon="8.4883401822"><ele>37.56</ele><time>2019-02-14T13:07:37Z</time></trkpt><trkpt lat="52.8527795244" lon="8.488369016"><ele>37.61</ele><time>2019-02-14T13:07:38Z</time></trkpt><trkpt lat="52.8527340107" lon="8.4883887134"><ele>37.64</ele><time>2019-02-14T13:07:39Z</time></trkpt><trkpt lat="52.8526882455" lon="8.4883952513"><ele>37.65</ele><time>2019-02-14T13:07:40Z</time></trkpt><trkpt lat="52.8526416421" lon="8.4883934911"><ele>37.66</ele><time>2019-02-14T13:07:41Z</time></trkpt><trkpt lat="52.8525955416" lon="8.4883876238"><ele>37.66</ele><time>2019-02-14T13:07:42Z</time></trkpt><trkpt lat="52.8518903721" lon="8.4883956704"><ele>36.26</ele><time>2019-02-14T13:07:55Z</time></trkpt><trkpt lat="52.8510489967" lon="8.488505641"><ele>34.09</ele><time>2019-02-14T13:08:08Z</time></trkpt><trkpt lat="52.850986803" lon="8.4884784836"><ele>33.98</ele><time>2019-02-14T13:08:09Z</time></trkpt><trkpt lat="52.8509356733" lon="8.4884208161"><ele>33.87</ele><time>2019-02-14T13:08:10Z</time></trkpt><trkpt lat="52.8509055823" lon="8.4883355722"><ele>33.76</ele><time>2019-02-14T13:08:11Z</time></trkpt><trkpt lat="52.8508930095" lon="8.4882368334"><ele>33.65</ele><time>2019-02-14T13:08:12Z</time></trkpt><trkpt lat="52.8508828674" lon="8.4881360829"><ele>33.57</ele><time>2019-02-14T13:08:13Z</time></trkpt><trkpt lat="52.8507302329" lon="8.486428773"><ele>31.79</ele><time>2019-02-14T13:08:29Z</time></trkpt><trkpt lat="52.8505954519" lon="8.4849643707"><ele>29.96</ele><time>2019-02-14T13:08:42Z</time></trkpt><trkpt lat="52.8504041769" lon="8.4828778636"><ele>27.04</ele><time>2019-02-14T13:09:01Z</time></trkpt><trkpt lat="52.8503380436" lon="8.4819658287"><ele>23.7</ele><time>2019-02-14T13:09:08Z</time></trkpt><trkpt lat="52.8503047675" lon="8.481164854"><ele>20.63</ele><time>2019-02-14T13:09:14Z</time></trkpt><trkpt lat="52.8502460103" lon="8.4797935747"><ele>20.46</ele><time>2019-02-14T13:09:28Z</time></trkpt><trkpt lat="52.8502221219" lon="8.4787421487"><ele>21.02</ele><time>2019-02-14T13:09:40Z</time></trkpt><trkpt lat="52.8502310067" lon="8.478654474"><ele>21.05</ele><time>2019-02-14T13:09:41Z</time></trkpt><trkpt lat="52.8502446692" lon="8.4785678051"><ele>21.11</ele><time>2019-02-14T13:09:42Z</time></trkpt><trkpt lat="52.8503390495" lon="8.4780343808"><ele>21.36</ele><time>2019-02-14T13:09:48Z</time></trkpt><trkpt lat="52.8503460065" lon="8.4779339656"><ele>21.36</ele><time>2019-02-14T13:09:49Z</time></trkpt><trkpt lat="52.8503488563" lon="8.4778338857"><ele>21.38</ele><time>2019-02-14T13:09:50Z</time></trkpt><trkpt lat="52.8503346071" lon="8.4764678869"><ele>21.3</ele><time>2019-02-14T13:10:04Z</time></trkpt><trkpt lat="52.8503170051" lon="8.4763841517"><ele>21.26</ele><time>2019-02-14T13:10:05Z</time></trkpt><trkpt lat="52.8502890933" lon="8.4763137437"><ele>21.27</ele><time>2019-02-14T13:10:06Z</time></trkpt><trkpt lat="52.8502542246" lon="8.4762559924"><ele>21.28</ele><time>2019-02-14T13:10:07Z</time></trkpt><trkpt lat="52.85021374" lon="8.476212658"><ele>21.3</ele><time>2019-02-14T13:10:08Z</time></trkpt><trkpt lat="52.8501699865" lon="8.4761789627"><ele>21.36</ele><time>2019-02-14T13:10:09Z</time></trkpt><trkpt lat="52.850127155" lon="8.4761426691"><ele>21.46</ele><time>2019-02-14T13:10:10Z</time></trkpt><trkpt lat="52.8500839043" lon="8.4761029389"><ele>21.57</ele><time>2019-02-14T13:10:11Z</time></trkpt><trkpt lat="52.8500062041" lon="8.4760109056"><ele>21.85</ele><time>2019-02-14T13:10:13Z</time></trkpt><trkpt lat="52.8499736823" lon="8.4759541601"><ele>21.99</ele><time>2019-02-14T13:10:14Z</time></trkpt><trkpt lat="52.8499436751" lon="8.4758942295"><ele>22.19</ele><time>2019-02-14T13:10:15Z</time></trkpt><trkpt lat="52.8498454392" lon="8.4756424371"><ele>22.89</ele><time>2019-02-14T13:10:19Z</time></trkpt><trkpt lat="52.8497288469" lon="8.4744916856"><ele>24.27</ele><time>2019-02-14T13:10:34Z</time></trkpt><trkpt lat="52.8496399987" lon="8.4734975081"><ele>23.31</ele><time>2019-02-14T13:10:46Z</time></trkpt><trkpt lat="52.8496203851" lon="8.4734171256"><ele>23.29</ele><time>2019-02-14T13:10:47Z</time></trkpt><trkpt lat="52.849203134" lon="8.4721502848"><ele>23.57</ele><time>2019-02-14T13:11:05Z</time></trkpt><trkpt lat="52.8487385251" lon="8.4707763232"><ele>24.86</ele><time>2019-02-14T13:11:25Z</time></trkpt><trkpt lat="52.8484242875" lon="8.4698619414"><ele>25.54</ele><time>2019-02-14T13:11:38Z</time></trkpt><trkpt lat="52.8481849842" lon="8.4691778105"><ele>25.93</ele><time>2019-02-14T13:11:49Z</time></trkpt><trkpt lat="52.8481457569" lon="8.4691482224"><ele>25.97</ele><time>2019-02-14T13:11:50Z</time></trkpt><trkpt lat="52.8481025063" lon="8.4691348113"><ele>26.01</ele><time>2019-02-14T13:11:51Z</time></trkpt><trkpt lat="52.8480565734" lon="8.4691387508"><ele>26.02</ele><time>2019-02-14T13:11:52Z</time></trkpt><trkpt lat="52.8480097186" lon="8.4691536706"><ele>26.03</ele><time>2019-02-14T13:11:53Z</time></trkpt><trkpt lat="52.8479620256" lon="8.4691711888"><ele>26.05</ele><time>2019-02-14T13:11:54Z</time></trkpt><trkpt lat="52.8472802415" lon="8.4693762101"><ele>25.79</ele><time>2019-02-14T13:12:08Z</time></trkpt><trkpt lat="52.8471203987" lon="8.4694129229"><ele>25.59</ele><time>2019-02-14T13:12:11Z</time></trkpt><trkpt lat="52.8470652457" lon="8.469407307"><ele>25.53</ele><time>2019-02-14T13:12:12Z</time></trkpt><trkpt lat="52.847010931" lon="8.4694031999"><ele>25.48</ele><time>2019-02-14T13:12:13Z</time></trkpt><trkpt lat="52.8469588794" lon="8.469404038"><ele>25.44</ele><time>2019-02-14T13:12:14Z</time></trkpt><trkpt lat="52.8469075821" lon="8.4694085643"><ele>25.41</ele><time>2019-02-14T13:12:15Z</time></trkpt><trkpt lat="52.8467128705" lon="8.469457766"><ele>25.42</ele><time>2019-02-14T13:12:19Z</time></trkpt><trkpt lat="52.8466702905" lon="8.4694423433"><ele>25.43</ele><time>2019-02-14T13:12:20Z</time></trkpt><trkpt lat="52.8466446418" lon="8.4693918843"><ele>25.41</ele><time>2019-02-14T13:12:21Z</time></trkpt><trkpt lat="52.8466415405" lon="8.4693173692"><ele>25.38</ele><time>2019-02-14T13:12:22Z</time></trkpt><trkpt lat="52.8466464859" lon="8.4692358132"><ele>25.32</ele><time>2019-02-14T13:12:23Z</time></trkpt><trkpt lat="52.8466552868" lon="8.4691506531"><ele>25.23</ele><time>2019-02-14T13:12:24Z</time></trkpt><trkpt lat="52.8467132058" lon="8.468032591"><ele>23.37</ele><time>2019-02-14T13:12:37Z</time></trkpt><trkpt lat="52.8464837931" lon="8.4667431191"><ele>23.63</ele><time>2019-02-14T13:12:53Z</time></trkpt><trkpt lat="52.8464809433" lon="8.4666582942"><ele>23.73</ele><time>2019-02-14T13:12:54Z</time></trkpt><trkpt lat="52.8464848828" lon="8.4665748943"><ele>23.86</ele><time>2019-02-14T13:12:55Z</time></trkpt><trkpt lat="52.8464947734" lon="8.4664935898"><ele>23.97</ele><time>2019-02-14T13:12:56Z</time></trkpt><trkpt lat="52.8465096094" lon="8.4664132912"><ele>24.05</ele><time>2019-02-14T13:12:57Z</time></trkpt><trkpt lat="52.8465265408" lon="8.4663343336"><ele>24.11</ele><time>2019-02-14T13:12:58Z</time></trkpt><trkpt lat="52.8468193207" lon="8.4649395011"><ele>25.89</ele><time>2019-02-14T13:13:16Z</time></trkpt><trkpt lat="52.8471422754" lon="8.4633409046"><ele>27.39</ele><time>2019-02-14T13:13:37Z</time></trkpt><trkpt lat="52.8474158607" lon="8.4616775997"><ele>27.32</ele><time>2019-02-14T13:13:59Z</time></trkpt><trkpt lat="52.8472413495" lon="8.4598364308"><ele>27.46</ele><time>2019-02-14T13:14:22Z</time></trkpt><trkpt lat="52.8471312951" lon="8.4584478848"><ele>27.53</ele><time>2019-02-14T13:14:39Z</time></trkpt><trkpt lat="52.8469577059" lon="8.4566703346"><ele>27.01</ele><time>2019-02-14T13:15:00Z</time></trkpt><trkpt lat="52.8467846196" lon="8.454801254"><ele>26.39</ele><time>2019-02-14T13:15:23Z</time></trkpt><trkpt lat="52.8466322366" lon="8.4535657614"><ele>26.38</ele><time>2019-02-14T13:15:38Z</time></trkpt><trkpt lat="52.8466041572" lon="8.4534971975"><ele>26.36</ele><time>2019-02-14T13:15:39Z</time></trkpt><trkpt lat="52.8465466574" lon="8.4533599019"><ele>26.3</ele><time>2019-02-14T13:15:41Z</time></trkpt><trkpt lat="52.8465225175" lon="8.4532865603"><ele>26.28</ele><time>2019-02-14T13:15:42Z</time></trkpt><trkpt lat="52.846436603" lon="8.4529998153"><ele>26.06</ele><time>2019-02-14T13:15:46Z</time></trkpt><trkpt lat="52.84633426" lon="8.4527311753"><ele>25.73</ele><time>2019-02-14T13:15:50Z</time></trkpt><trkpt lat="52.8463055938" lon="8.45266697"><ele>25.65</ele><time>2019-02-14T13:15:51Z</time></trkpt><trkpt lat="52.8462786041" lon="8.4526056144"><ele>25.62</ele><time>2019-02-14T13:15:52Z</time></trkpt><trkpt lat="52.8462547995" lon="8.4525487013"><ele>25.57</ele><time>2019-02-14T13:15:53Z</time></trkpt><trkpt lat="52.8462311625" lon="8.4524943028"><ele>25.53</ele><time>2019-02-14T13:15:54Z</time></trkpt><trkpt lat="52.8460724931" lon="8.4521141835"><ele>26.15</ele><time>2019-02-14T13:16:03Z</time></trkpt><trkpt lat="52.8460372891" lon="8.452095408"><ele>26.34</ele><time>2019-02-14T13:16:04Z</time></trkpt><trkpt lat="52.8459955472" lon="8.4520857688"><ele>26.53</ele><time>2019-02-14T13:16:05Z</time></trkpt><trkpt lat="52.8458966408" lon="8.4520612098"><ele>26.82</ele><time>2019-02-14T13:16:07Z</time></trkpt><trkpt lat="52.8458498698" lon="8.4520411771"><ele>26.92</ele><time>2019-02-14T13:16:08Z</time></trkpt><trkpt lat="52.8458040208" lon="8.4520158637"><ele>26.99</ele><time>2019-02-14T13:16:09Z</time></trkpt><trkpt lat="52.8455148451" lon="8.4517918993"><ele>27.01</ele><time>2019-02-14T13:16:16Z</time></trkpt><trkpt lat="52.8454782162" lon="8.4517449606"><ele>27.04</ele><time>2019-02-14T13:16:17Z</time></trkpt><trkpt lat="52.8454429284" lon="8.4517009556"><ele>27.04</ele><time>2019-02-14T13:16:18Z</time></trkpt><trkpt lat="52.8447656706" lon="8.4508377034"><ele>27.87</ele><time>2019-02-14T13:16:38Z</time></trkpt><trkpt lat="52.8438546415" lon="8.4497095831"><ele>27.81</ele><time>2019-02-14T13:17:02Z</time></trkpt><trkpt lat="52.8432548326" lon="8.4486955404"><ele>27.72</ele><time>2019-02-14T13:17:20Z</time></trkpt><trkpt lat="52.8431835026" lon="8.4484973922"><ele>27.73</ele><time>2019-02-14T13:17:23Z</time></trkpt><trkpt lat="52.8431594465" lon="8.4484320972"><ele>27.74</ele><time>2019-02-14T13:17:24Z</time></trkpt><trkpt lat="52.8431346361" lon="8.4483647905"><ele>27.74</ele><time>2019-02-14T13:17:25Z</time></trkpt><trkpt lat="52.8427965939" lon="8.4473888855"><ele>27.49</ele><time>2019-02-14T13:17:39Z</time></trkpt><trkpt lat="52.8425159678" lon="8.4460591804"><ele>27.73</ele><time>2019-02-14T13:17:57Z</time></trkpt><trkpt lat="52.8423961066" lon="8.4453777317"><ele>28.26</ele><time>2019-02-14T13:18:06Z</time></trkpt><trkpt lat="52.8423743136" lon="8.4453071561"><ele>28.32</ele><time>2019-02-14T13:18:07Z</time></trkpt><trkpt lat="52.8417888377" lon="8.4440023452"><ele>29.3</ele><time>2019-02-14T13:18:28Z</time></trkpt><trkpt lat="52.8413503803" lon="8.443026524"><ele>30.18</ele><time>2019-02-14T13:18:44Z</time></trkpt><trkpt lat="52.841209732" lon="8.4426729754"><ele>30.39</ele><time>2019-02-14T13:18:50Z</time></trkpt><trkpt lat="52.8411845863" lon="8.4426209237"><ele>30.42</ele><time>2019-02-14T13:18:51Z</time></trkpt><trkpt lat="52.8408680018" lon="8.441989515"><ele>31.53</ele><time>2019-02-14T13:19:03Z</time></trkpt><trkpt lat="52.8405896388" lon="8.4413382411"><ele>32.62</ele><time>2019-02-14T13:19:15Z</time></trkpt><trkpt lat="52.840313958" lon="8.4406774957"><ele>33.73</ele><time>2019-02-14T13:19:27Z</time></trkpt><trkpt lat="52.8400506824" lon="8.4397309273"><ele>35.33</ele><time>2019-02-14T13:19:42Z</time></trkpt><trkpt lat="52.8399828728" lon="8.4391563479"><ele>35.84</ele><time>2019-02-14T13:19:50Z</time></trkpt><trkpt lat="52.8398698848" lon="8.4379048459"><ele>36.92</ele><time>2019-02-14T13:20:08Z</time></trkpt><trkpt lat="52.8398254607" lon="8.4376331884"><ele>36.99</ele><time>2019-02-14T13:20:12Z</time></trkpt><trkpt lat="52.8396189306" lon="8.4370171186"><ele>37.52</ele><time>2019-02-14T13:20:22Z</time></trkpt><trkpt lat="52.8395964671" lon="8.436959032"><ele>37.62</ele><time>2019-02-14T13:20:23Z</time></trkpt><trkpt lat="52.8395726625" lon="8.436901113"><ele>37.77</ele><time>2019-02-14T13:20:24Z</time></trkpt><trkpt lat="52.839440899" lon="8.4365546051"><ele>38.17</ele><time>2019-02-14T13:20:30Z</time></trkpt><trkpt lat="52.839151388" lon="8.43577886"><ele>39.35</ele><time>2019-02-14T13:20:43Z</time></trkpt><trkpt lat="52.8391363006" lon="8.4357092902"><ele>39.45</ele><time>2019-02-14T13:20:44Z</time></trkpt><trkpt lat="52.8388576023" lon="8.4345596284"><ele>40.91</ele><time>2019-02-14T13:21:01Z</time></trkpt><trkpt lat="52.8384354897" lon="8.4331404883"><ele>40.86</ele><time>2019-02-14T13:21:22Z</time></trkpt><trkpt lat="52.8379140515" lon="8.431482967"><ele>41.2</ele><time>2019-02-14T13:21:46Z</time></trkpt><trkpt lat="52.8372634482" lon="8.4299976937"><ele>41.12</ele><time>2019-02-14T13:22:08Z</time></trkpt><trkpt lat="52.8364382498" lon="8.4284651466"><ele>37.88</ele><time>2019-02-14T13:22:28Z</time></trkpt><trkpt lat="52.8355647717" lon="8.4271598328"><ele>35.7</ele><time>2019-02-14T13:22:47Z</time></trkpt><trkpt lat="52.8353729099" lon="8.4269338567"><ele>35.41</ele><time>2019-02-14T13:22:51Z</time></trkpt><trkpt lat="52.8353509493" lon="8.4268609341"><ele>35.37</ele><time>2019-02-14T13:22:52Z</time></trkpt><trkpt lat="52.8353476804" lon="8.4267746005"><ele>35.33</ele><time>2019-02-14T13:22:53Z</time></trkpt><trkpt lat="52.8353849798" lon="8.4257398546"><ele>35.1</ele><time>2019-02-14T13:23:05Z</time></trkpt><trkpt lat="52.8354022466" lon="8.4247367084"><ele>36.04</ele><time>2019-02-14T13:23:16Z</time></trkpt><trkpt lat="52.835395541" lon="8.4246569965"><ele>36.1</ele><time>2019-02-14T13:23:17Z</time></trkpt><trkpt lat="52.8353892546" lon="8.4245794639"><ele>36.15</ele><time>2019-02-14T13:23:18Z</time></trkpt><trkpt lat="52.8353869915" lon="8.4244291764"><ele>36.25</ele><time>2019-02-14T13:23:20Z</time></trkpt><trkpt lat="52.8353537992" lon="8.4241162799"><ele>37.07</ele><time>2019-02-14T13:23:26Z</time></trkpt><trkpt lat="52.83533209" lon="8.424047213"><ele>37.25</ele><time>2019-02-14T13:23:27Z</time></trkpt><trkpt lat="52.8353128117" lon="8.4239654057"><ele>37.4</ele><time>2019-02-14T13:23:28Z</time></trkpt><trkpt lat="52.8353026696" lon="8.4238791559"><ele>37.52</ele><time>2019-02-14T13:23:29Z</time></trkpt><trkpt lat="52.8352978919" lon="8.4237911459"><ele>37.61</ele><time>2019-02-14T13:23:30Z</time></trkpt><trkpt lat="52.8352944553" lon="8.423701711"><ele>37.64</ele><time>2019-02-14T13:23:31Z</time></trkpt><trkpt lat="52.8352646157" lon="8.4222584311"><ele>37.36</ele><time>2019-02-14T13:23:48Z</time></trkpt><trkpt lat="52.8352869954" lon="8.4207990579"><ele>38.6</ele><time>2019-02-14T13:24:06Z</time></trkpt><trkpt lat="52.8352827206" lon="8.4189904109"><ele>36.93</ele><time>2019-02-14T13:24:26Z</time></trkpt><trkpt lat="52.8353459202" lon="8.4172334801"><ele>36.69</ele><time>2019-02-14T13:24:46Z</time></trkpt><trkpt lat="52.8356177453" lon="8.4160593431"><ele>37.36</ele><time>2019-02-14T13:25:01Z</time></trkpt><trkpt lat="52.8356547933" lon="8.4158058744"><ele>37.33</ele><time>2019-02-14T13:25:04Z</time></trkpt><trkpt lat="52.8357710503" lon="8.4145003092"><ele>37.94</ele><time>2019-02-14T13:25:20Z</time></trkpt><trkpt lat="52.8360430431" lon="8.4129259363"><ele>39.71</ele><time>2019-02-14T13:25:40Z</time></trkpt><trkpt lat="52.8365197219" lon="8.4116871748"><ele>41.51</ele><time>2019-02-14T13:25:59Z</time></trkpt><trkpt lat="52.8372638673" lon="8.4102154803"><ele>43.07</ele><time>2019-02-14T13:26:24Z</time></trkpt><trkpt lat="52.8378747404" lon="8.4090548381"><ele>43.6</ele><time>2019-02-14T13:26:43Z</time></trkpt><trkpt lat="52.8379101958" lon="8.4089200571"><ele>43.59</ele><time>2019-02-14T13:26:45Z</time></trkpt><trkpt lat="52.838015724" lon="8.4074664675"><ele>43.65</ele><time>2019-02-14T13:27:03Z</time></trkpt><trkpt lat="52.838091664" lon="8.4054807946"><ele>43.83</ele><time>2019-02-14T13:27:27Z</time></trkpt><trkpt lat="52.838136591" lon="8.4039588924"><ele>44.47</ele><time>2019-02-14T13:27:46Z</time></trkpt><trkpt lat="52.8380968608" lon="8.4023587033"><ele>45.16</ele><time>2019-02-14T13:28:05Z</time></trkpt><trkpt lat="52.8380403668" lon="8.4007512219"><ele>45.35</ele><time>2019-02-14T13:28:24Z</time></trkpt><trkpt lat="52.838022681" lon="8.3999229223"><ele>45.24</ele><time>2019-02-14T13:28:34Z</time></trkpt><trkpt lat="52.8380347509" lon="8.3998428751"><ele>45.25</ele><time>2019-02-14T13:28:35Z</time></trkpt><trkpt lat="52.8380543645" lon="8.3997649234"><ele>45.26</ele><time>2019-02-14T13:28:36Z</time></trkpt><trkpt lat="52.8380818572" lon="8.3996921685"><ele>45.3</ele><time>2019-02-14T13:28:37Z</time></trkpt><trkpt lat="52.8381163068" lon="8.3996268734"><ele>45.35</ele><time>2019-02-14T13:28:38Z</time></trkpt><trkpt lat="52.8381555341" lon="8.3995695412"><ele>45.44</ele><time>2019-02-14T13:28:39Z</time></trkpt><trkpt lat="52.8381968569" lon="8.3995167352"><ele>45.49</ele><time>2019-02-14T13:28:40Z</time></trkpt><trkpt lat="52.838348737" lon="8.3992890827"><ele>45.62</ele><time>2019-02-14T13:28:44Z</time></trkpt><trkpt lat="52.8383722063" lon="8.3992161602"><ele>45.66</ele><time>2019-02-14T13:28:45Z</time></trkpt><trkpt lat="52.8383843601" lon="8.399135191"><ele>45.7</ele><time>2019-02-14T13:28:46Z</time></trkpt><trkpt lat="52.8383880481" lon="8.3990509529"><ele>45.72</ele><time>2019-02-14T13:28:47Z</time></trkpt><trkpt lat="52.8383888025" lon="8.3989657089"><ele>45.73</ele><time>2019-02-14T13:28:48Z</time></trkpt><trkpt lat="52.8383017145" lon="8.3971563913"><ele>46.1</ele><time>2019-02-14T13:29:09Z</time></trkpt><trkpt lat="52.8382409457" lon="8.3959524985"><ele>45.72</ele><time>2019-02-14T13:29:23Z</time></trkpt><trkpt lat="52.8382514231" lon="8.3958668355"><ele>45.65</ele><time>2019-02-14T13:29:24Z</time></trkpt><trkpt lat="52.8382714558" lon="8.3957877103"><ele>45.6</ele><time>2019-02-14T13:29:25Z</time></trkpt><trkpt lat="52.8383035585" lon="8.3957217447"><ele>45.57</ele><time>2019-02-14T13:29:26Z</time></trkpt><trkpt lat="52.8383426182" lon="8.3956662565"><ele>45.57</ele><time>2019-02-14T13:29:27Z</time></trkpt><trkpt lat="52.8388974164" lon="8.39503753"><ele>45.98</ele><time>2019-02-14T13:29:40Z</time></trkpt><trkpt lat="52.8397196811" lon="8.394667469"><ele>47.17</ele><time>2019-02-14T13:29:56Z</time></trkpt><trkpt lat="52.839763267" lon="8.3946160041"><ele>47.15</ele><time>2019-02-14T13:29:57Z</time></trkpt><trkpt lat="52.8397968784" lon="8.3945465181"><ele>47.11</ele><time>2019-02-14T13:29:58Z</time></trkpt><trkpt lat="52.8398169111" lon="8.394465046"><ele>47.07</ele><time>2019-02-14T13:29:59Z</time></trkpt><trkpt lat="52.839822527" lon="8.3943783771"><ele>46.99</ele><time>2019-02-14T13:30:00Z</time></trkpt><trkpt lat="52.8398142289" lon="8.3942939714"><ele>46.73</ele><time>2019-02-14T13:30:01Z</time></trkpt><trkpt lat="52.8397957049" lon="8.3942141756"><ele>46.57</ele><time>2019-02-14T13:30:02Z</time></trkpt><trkpt lat="52.8397733252" lon="8.394137565"><ele>46.44</ele><time>2019-02-14T13:30:03Z</time></trkpt><trkpt lat="52.8393231332" lon="8.3925018366"><ele>46.47</ele><time>2019-02-14T13:30:25Z</time></trkpt><trkpt lat="52.8389731888" lon="8.3910451457"><ele>45.83</ele><time>2019-02-14T13:30:43Z</time></trkpt><trkpt lat="52.8389051277" lon="8.3906928543"><ele>45.38</ele><time>2019-02-14T13:30:47Z</time></trkpt><trkpt lat="52.8386333864" lon="8.3893500734"><ele>45.08</ele><time>2019-02-14T13:31:03Z</time></trkpt><trkpt lat="52.8385862801" lon="8.3890051581"><ele>45.04</ele><time>2019-02-14T13:31:07Z</time></trkpt><trkpt lat="52.8385859448" lon="8.3889141306"><ele>45.05</ele><time>2019-02-14T13:31:08Z</time></trkpt><trkpt lat="52.838590974" lon="8.3888238575"><ele>45.05</ele><time>2019-02-14T13:31:09Z</time></trkpt><trkpt lat="52.8386008646" lon="8.3887339197"><ele>45.05</ele><time>2019-02-14T13:31:10Z</time></trkpt><trkpt lat="52.8386184666" lon="8.3886480052"><ele>45.09</ele><time>2019-02-14T13:31:11Z</time></trkpt><trkpt lat="52.8386431094" lon="8.3885683771"><ele>45.1</ele><time>2019-02-14T13:31:12Z</time></trkpt><trkpt lat="52.8386741225" lon="8.3884915989"><ele>45.09</ele><time>2019-02-14T13:31:13Z</time></trkpt><trkpt lat="52.8387096617" lon="8.3884216938"><ele>45.08</ele><time>2019-02-14T13:31:14Z</time></trkpt><trkpt lat="52.8387508169" lon="8.3883597516"><ele>45.07</ele><time>2019-02-14T13:31:15Z</time></trkpt><trkpt lat="52.8387955762" lon="8.3883035928"><ele>45.05</ele><time>2019-02-14T13:31:16Z</time></trkpt><trkpt lat="52.8388420958" lon="8.3882517926"><ele>45.02</ele><time>2019-02-14T13:31:17Z</time></trkpt><trkpt lat="52.8390100691" lon="8.3880170155"><ele>44.87</ele><time>2019-02-14T13:31:21Z</time></trkpt><trkpt lat="52.8390799742" lon="8.387885252"><ele>44.86</ele><time>2019-02-14T13:31:23Z</time></trkpt><trkpt lat="52.8391217161" lon="8.3878349606"><ele>44.85</ele><time>2019-02-14T13:31:24Z</time></trkpt><trkpt lat="52.8391700797" lon="8.3878027741"><ele>44.87</ele><time>2019-02-14T13:31:25Z</time></trkpt><trkpt lat="52.8392230533" lon="8.3877868485"><ele>44.88</ele><time>2019-02-14T13:31:26Z</time></trkpt><trkpt lat="52.8392776195" lon="8.3877776284"><ele>44.88</ele><time>2019-02-14T13:31:27Z</time></trkpt><trkpt lat="52.8397366125" lon="8.3876304422"><ele>44.67</ele><time>2019-02-14T13:31:35Z</time></trkpt><trkpt lat="52.8397698049" lon="8.3875491377"><ele>44.63</ele><time>2019-02-14T13:31:36Z</time></trkpt><trkpt lat="52.8397804499" lon="8.3874529134"><ele>44.56</ele><time>2019-02-14T13:31:37Z</time></trkpt><trkpt lat="52.8397724871" lon="8.387360964"><ele>44.47</ele><time>2019-02-14T13:31:38Z</time></trkpt><trkpt lat="52.8397574835" lon="8.3872744627"><ele>44.41</ele><time>2019-02-14T13:31:39Z</time></trkpt><trkpt lat="52.8397404682" lon="8.3871878777"><ele>44.36</ele><time>2019-02-14T13:31:40Z</time></trkpt><trkpt lat="52.8395028412" lon="8.3862212766"><ele>44.61</ele><time>2019-02-14T13:31:55Z</time></trkpt><trkpt lat="52.839485826" lon="8.3861541376"><ele>45.29</ele><time>2019-02-14T13:32:09Z</time></trkpt><trkpt lat="52.8393901885" lon="8.385775527"><ele>44.97</ele><time>2019-02-14T13:32:23Z</time></trkpt><trkpt lat="52.8391211294" lon="8.384610191"><ele>44.32</ele><time>2019-02-14T13:32:39Z</time></trkpt><trkpt lat="52.8390866797" lon="8.384560151"><ele>44.36</ele><time>2019-02-14T13:32:40Z</time></trkpt><trkpt lat="52.8390454408" lon="8.3845281322"><ele>44.4</ele><time>2019-02-14T13:32:41Z</time></trkpt><trkpt lat="52.8390001785" lon="8.3845138829"><ele>44.45</ele><time>2019-02-14T13:32:42Z</time></trkpt><trkpt lat="52.8389541619" lon="8.3845091891"><ele>44.48</ele><time>2019-02-14T13:32:43Z</time></trkpt><trkpt lat="52.8389076423" lon="8.3845079318"><ele>44.5</ele><time>2019-02-14T13:32:44Z</time></trkpt><trkpt lat="52.8386839293" lon="8.38445412"><ele>44.54</ele><time>2019-02-14T13:32:49Z</time></trkpt><trkpt lat="52.8386415169" lon="8.3844272979"><ele>44.58</ele><time>2019-02-14T13:32:50Z</time></trkpt><trkpt lat="52.8386008646" lon="8.3843913395"><ele>44.63</ele><time>2019-02-14T13:32:51Z</time></trkpt><trkpt lat="52.8385633975" lon="8.3843485918"><ele>44.68</ele><time>2019-02-14T13:32:52Z</time></trkpt><trkpt lat="52.8385289479" lon="8.38429939"><ele>44.73</ele><time>2019-02-14T13:32:53Z</time></trkpt><trkpt lat="52.8384990245" lon="8.3842443209"><ele>44.76</ele><time>2019-02-14T13:32:54Z</time></trkpt><trkpt lat="52.8384715319" lon="8.3841811214"><ele>44.78</ele><time>2019-02-14T13:32:55Z</time></trkpt><trkpt lat="52.8384458832" lon="8.3841129765"><ele>44.79</ele><time>2019-02-14T13:32:56Z</time></trkpt><trkpt lat="52.8380712122" lon="8.3826918248"><ele>44.7</ele><time>2019-02-14T13:33:15Z</time></trkpt><trkpt lat="52.8376543801" lon="8.3810605388"><ele>44.69</ele><time>2019-02-14T13:33:37Z</time></trkpt><trkpt lat="52.8375776857" lon="8.3807722852"><ele>44.75</ele><time>2019-02-14T13:33:41Z</time></trkpt><trkpt lat="52.8375481814" lon="8.3807104267"><ele>44.75</ele><time>2019-02-14T13:33:42Z</time></trkpt><trkpt lat="52.8375153244" lon="8.3806522563"><ele>44.77</ele><time>2019-02-14T13:33:43Z</time></trkpt><trkpt lat="52.8374785278" lon="8.3806015458"><ele>44.79</ele><time>2019-02-14T13:33:44Z</time></trkpt><trkpt lat="52.837439971" lon="8.3805581275"><ele>44.78</ele><time>2019-02-14T13:33:45Z</time></trkpt><trkpt lat="52.837400157" lon="8.3805197384"><ele>44.76</ele><time>2019-02-14T13:33:46Z</time></trkpt><trkpt lat="52.8373217862" lon="8.3804539405"><ele>44.77</ele><time>2019-02-14T13:33:48Z</time></trkpt><trkpt lat="52.8372768592" lon="8.380429633"><ele>44.78</ele><time>2019-02-14T13:33:49Z</time></trkpt><trkpt lat="52.8372310102" lon="8.3804142103"><ele>44.82</ele><time>2019-02-14T13:33:50Z</time></trkpt><trkpt lat="52.8371845745" lon="8.3804056607"><ele>44.88</ele><time>2019-02-14T13:33:51Z</time></trkpt><trkpt lat="52.8371367138" lon="8.3804005478"><ele>44.97</ele><time>2019-02-14T13:33:52Z</time></trkpt><trkpt lat="52.8362234216" lon="8.3803112805"><ele>44.93</ele><time>2019-02-14T13:34:10Z</time></trkpt><trkpt lat="52.8351985663" lon="8.3801909164"><ele>45.03</ele><time>2019-02-14T13:34:30Z</time></trkpt><trkpt lat="52.8350553196" lon="8.3801930957"><ele>45.06</ele><time>2019-02-14T13:34:33Z</time></trkpt><trkpt lat="52.8350169305" lon="8.3802117873"><ele>45.07</ele><time>2019-02-14T13:34:34Z</time></trkpt><trkpt lat="52.8349963948" lon="8.3802254498"><ele>45.09</ele><time>2019-02-14T13:34:35Z</time></trkpt><trkpt lat="52.8349877615" lon="8.3802330773"><ele>45.58</ele><time>2019-02-14T13:34:56Z</time></trkpt><trkpt lat="52.835002346" lon="8.3802219294"><ele>45.11</ele><time>2019-02-14T13:37:04Z</time></trkpt><trkpt lat="52.834974518" lon="8.3802104462"><ele>45.09</ele><time>2019-02-14T13:38:22Z</time></trkpt><trkpt lat="52.8349593468" lon="8.380198963"><ele>45.08</ele><time>2019-02-14T13:38:23Z</time></trkpt><trkpt lat="52.8349424154" lon="8.380185049"><ele>45.06</ele><time>2019-02-14T13:38:24Z</time></trkpt><trkpt lat="52.8349229693" lon="8.380169794"><ele>45.04</ele><time>2019-02-14T13:38:25Z</time></trkpt><trkpt lat="52.834897656" lon="8.3801604062"><ele>45.02</ele><time>2019-02-14T13:38:26Z</time></trkpt><trkpt lat="52.8348667268" lon="8.3801560476"><ele>45.02</ele><time>2019-02-14T13:38:27Z</time></trkpt><trkpt lat="52.8347123321" lon="8.3801451512"><ele>44.75</ele><time>2019-02-14T13:38:31Z</time></trkpt><trkpt lat="52.8344967496" lon="8.3801495936"><ele>44.38</ele><time>2019-02-14T13:38:36Z</time></trkpt><trkpt lat="52.834452074" lon="8.3801386133"><ele>44.34</ele><time>2019-02-14T13:38:37Z</time></trkpt><trkpt lat="52.8343623877" lon="8.3801048342"><ele>44.26</ele><time>2019-02-14T13:38:39Z</time></trkpt><trkpt lat="52.8342280257" lon="8.3800497651"><ele>44.19</ele><time>2019-02-14T13:38:42Z</time></trkpt><trkpt lat="52.833305262" lon="8.3798760921"><ele>44.72</ele><time>2019-02-14T13:39:00Z</time></trkpt><trkpt lat="52.8325986676" lon="8.3797882497"><ele>44.93</ele><time>2019-02-14T13:39:14Z</time></trkpt><trkpt lat="52.8323260043" lon="8.3797495253"><ele>45.32</ele><time>2019-02-14T13:39:24Z</time></trkpt><trkpt lat="52.8323340509" lon="8.3797502797"><ele>45.51</ele><time>2019-02-14T13:39:57Z</time></trkpt><trkpt lat="52.8323049657" lon="8.3797522075"><ele>45.46</ele><time>2019-02-14T13:41:03Z</time></trkpt><trkpt lat="52.831969019" lon="8.3797254693"><ele>45.52</ele><time>2019-02-14T13:41:14Z</time></trkpt><trkpt lat="52.8316677734" lon="8.3797413949"><ele>45.13</ele><time>2019-02-14T13:41:20Z</time></trkpt><trkpt lat="52.8316182364" lon="8.3797379583"><ele>45.11</ele><time>2019-02-14T13:41:21Z</time></trkpt><trkpt lat="52.8313151468" lon="8.3796906006"><ele>45.02</ele><time>2019-02-14T13:41:27Z</time></trkpt><trkpt lat="52.8306255676" lon="8.3795757685"><ele>44.65</ele><time>2019-02-14T13:41:40Z</time></trkpt><trkpt lat="52.829953758" lon="8.3794663846"><ele>44.65</ele><time>2019-02-14T13:41:53Z</time></trkpt><trkpt lat="52.8297581244" lon="8.3793505467"><ele>44.72</ele><time>2019-02-14T13:41:57Z</time></trkpt><trkpt lat="52.8297106829" lon="8.3793120738"><ele>44.75</ele><time>2019-02-14T13:41:58Z</time></trkpt><trkpt lat="52.8296639957" lon="8.3792674821"><ele>44.77</ele><time>2019-02-14T13:41:59Z</time></trkpt><trkpt lat="52.8290336765" lon="8.3784937486"><ele>45.17</ele><time>2019-02-14T13:42:14Z</time></trkpt><trkpt lat="52.8289849777" lon="8.3784612268"><ele>45.21</ele><time>2019-02-14T13:42:15Z</time></trkpt><trkpt lat="52.8289331775" lon="8.3784372546"><ele>45.26</ele><time>2019-02-14T13:42:16Z</time></trkpt><trkpt lat="52.8286424931" lon="8.3782876376"><ele>45.36</ele><time>2019-02-14T13:42:22Z</time></trkpt><trkpt lat="52.8286197782" lon="8.3782242704"><ele>45.34</ele><time>2019-02-14T13:42:23Z</time></trkpt><trkpt lat="52.8286124021" lon="8.3781448938"><ele>45.33</ele><time>2019-02-14T13:42:24Z</time></trkpt><trkpt lat="52.8285145853" lon="8.3767793979"><ele>45.69</ele><time>2019-02-14T13:42:40Z</time></trkpt><trkpt lat="52.8284069616" lon="8.3754696418"><ele>45.67</ele><time>2019-02-14T13:42:55Z</time></trkpt><trkpt lat="52.828311827" lon="8.3743346483"><ele>45.4</ele><time>2019-02-14T13:43:08Z</time></trkpt><trkpt lat="52.8282696661" lon="8.3736296464"><ele>45.15</ele><time>2019-02-14T13:43:16Z</time></trkpt><trkpt lat="52.8282387368" lon="8.3722865302"><ele>44.33</ele><time>2019-02-14T13:43:31Z</time></trkpt><trkpt lat="52.8282786347" lon="8.369855443"><ele>43.76</ele><time>2019-02-14T13:43:56Z</time></trkpt><trkpt lat="52.8282670677" lon="8.3676325623"><ele>43.88</ele><time>2019-02-14T13:44:19Z</time></trkpt><trkpt lat="52.8282496333" lon="8.3659213129"><ele>43.02</ele><time>2019-02-14T13:44:37Z</time></trkpt><trkpt lat="52.8282555006" lon="8.3656463027"><ele>42.93</ele><time>2019-02-14T13:44:40Z</time></trkpt><trkpt lat="52.8282677382" lon="8.3655568678"><ele>42.9</ele><time>2019-02-14T13:44:41Z</time></trkpt><trkpt lat="52.8282851726" lon="8.3654672652"><ele>42.89</ele><time>2019-02-14T13:44:42Z</time></trkpt><trkpt lat="52.8287524637" lon="8.3636768907"><ele>42.77</ele><time>2019-02-14T13:45:02Z</time></trkpt><trkpt lat="52.8291532863" lon="8.3617746178"><ele>42.1</ele><time>2019-02-14T13:45:23Z</time></trkpt><trkpt lat="52.8294346668" lon="8.3602457587"><ele>42.05</ele><time>2019-02-14T13:45:40Z</time></trkpt><trkpt lat="52.8296945896" lon="8.3588830288"><ele>41.96</ele><time>2019-02-14T13:45:55Z</time></trkpt><trkpt lat="52.8300182987" lon="8.3571514953"><ele>41.48</ele><time>2019-02-14T13:46:15Z</time></trkpt><trkpt lat="52.8302677441" lon="8.3559571579"><ele>41.52</ele><time>2019-02-14T13:46:30Z</time></trkpt><trkpt lat="52.8303002659" lon="8.3557916991"><ele>41.54</ele><time>2019-02-14T13:46:32Z</time></trkpt><trkpt lat="52.8305011801" lon="8.3546729665"><ele>41.87</ele><time>2019-02-14T13:46:45Z</time></trkpt><trkpt lat="52.8307410702" lon="8.3534548245"><ele>41.72</ele><time>2019-02-14T13:46:59Z</time></trkpt><trkpt lat="52.8308790363" lon="8.3526594657"><ele>42.3</ele><time>2019-02-14T13:47:08Z</time></trkpt><trkpt lat="52.8311462514" lon="8.3511451073"><ele>42.38</ele><time>2019-02-14T13:47:25Z</time></trkpt><trkpt lat="52.8314867243" lon="8.3492504619"><ele>42.34</ele><time>2019-02-14T13:47:46Z</time></trkpt><trkpt lat="52.831871286" lon="8.3473996539"><ele>40.23</ele><time>2019-02-14T13:48:06Z</time></trkpt><trkpt lat="52.8323182929" lon="8.3461420331"><ele>38.86</ele><time>2019-02-14T13:48:20Z</time></trkpt><trkpt lat="52.8324229829" lon="8.3459551167"><ele>38.73</ele><time>2019-02-14T13:48:23Z</time></trkpt><trkpt lat="52.8329240531" lon="8.3455750812"><ele>39.03</ele><time>2019-02-14T13:48:33Z</time></trkpt><trkpt lat="52.8334830422" lon="8.3451933693"><ele>41.14</ele><time>2019-02-14T13:48:45Z</time></trkpt><trkpt lat="52.833671635" lon="8.3450548165"><ele>41.62</ele><time>2019-02-14T13:48:49Z</time></trkpt><trkpt lat="52.8344035428" lon="8.3445642237"><ele>42.38</ele><time>2019-02-14T13:49:04Z</time></trkpt><trkpt lat="52.8350133263" lon="8.3441255149"><ele>43.03</ele><time>2019-02-14T13:49:17Z</time></trkpt><trkpt lat="52.8358246945" lon="8.3436036576"><ele>43.06</ele><time>2019-02-14T13:49:34Z</time></trkpt><trkpt lat="52.8366092406" lon="8.3431110531"><ele>43.22</ele><time>2019-02-14T13:49:50Z</time></trkpt><trkpt lat="52.8366584424" lon="8.3430879191"><ele>43.24</ele><time>2019-02-14T13:49:51Z</time></trkpt><trkpt lat="52.8373285756" lon="8.3429002482"><ele>43.61</ele><time>2019-02-14T13:50:05Z</time></trkpt><trkpt lat="52.8373792861" lon="8.3429001644"><ele>43.63</ele><time>2019-02-14T13:50:06Z</time></trkpt><trkpt lat="52.8374318406" lon="8.342914246"><ele>43.63</ele><time>2019-02-14T13:50:07Z</time></trkpt><trkpt lat="52.8374813776" lon="8.3429424092"><ele>43.62</ele><time>2019-02-14T13:50:08Z</time></trkpt><trkpt lat="52.8375235386" lon="8.3429870009"><ele>43.61</ele><time>2019-02-14T13:50:09Z</time></trkpt><trkpt lat="52.837560419" lon="8.3430395555"><ele>43.6</ele><time>2019-02-14T13:50:10Z</time></trkpt><trkpt lat="52.8375948686" lon="8.3430994023"><ele>43.58</ele><time>2019-02-14T13:50:11Z</time></trkpt><trkpt lat="52.8376240376" lon="8.3431712352"><ele>43.56</ele><time>2019-02-14T13:50:12Z</time></trkpt><trkpt lat="52.8376478422" lon="8.343247259"><ele>43.55</ele><time>2019-02-14T13:50:13Z</time></trkpt><trkpt lat="52.8376699705" lon="8.3433259651"><ele>43.56</ele><time>2019-02-14T13:50:14Z</time></trkpt><trkpt lat="52.8378451522" lon="8.3439557813"><ele>44.05</ele><time>2019-02-14T13:50:22Z</time></trkpt><trkpt lat="52.837879099" lon="8.3440199867"><ele>44.11</ele><time>2019-02-14T13:50:23Z</time></trkpt><trkpt lat="52.8379197512" lon="8.3440756425"><ele>44.18</ele><time>2019-02-14T13:50:24Z</time></trkpt><trkpt lat="52.8379657678" lon="8.3441212401"><ele>44.24</ele><time>2019-02-14T13:50:25Z</time></trkpt><trkpt lat="52.8380149696" lon="8.3441582881"><ele>44.3</ele><time>2019-02-14T13:50:26Z</time></trkpt><trkpt lat="52.8380660154" lon="8.3441883791"><ele>44.33</ele><time>2019-02-14T13:50:27Z</time></trkpt><trkpt lat="52.8381181508" lon="8.3442122675"><ele>44.39</ele><time>2019-02-14T13:50:28Z</time></trkpt><trkpt lat="52.8381722141" lon="8.3442299534"><ele>44.45</ele><time>2019-02-14T13:50:29Z</time></trkpt><trkpt lat="52.8382251877" lon="8.3442436997"><ele>44.48</ele><time>2019-02-14T13:50:30Z</time></trkpt><trkpt lat="52.839031443" lon="8.3441909775"><ele>44.56</ele><time>2019-02-14T13:50:46Z</time></trkpt><trkpt lat="52.839996703" lon="8.3440463897"><ele>44.81</ele><time>2019-02-14T13:51:05Z</time></trkpt><trkpt lat="52.8410188761" lon="8.3439354971"><ele>45.18</ele><time>2019-02-14T13:51:25Z</time></trkpt><trkpt lat="52.8410872724" lon="8.3439175598"><ele>45.36</ele><time>2019-02-14T13:51:29Z</time></trkpt><trkpt lat="52.8410995938" lon="8.3439225052"><ele>45.45</ele><time>2019-02-14T13:51:30Z</time></trkpt><trkpt lat="52.8411166091" lon="8.3439223375"><ele>45.53</ele><time>2019-02-14T13:51:31Z</time></trkpt><trkpt lat="52.841141168" lon="8.3439111058"><ele>45.6</ele><time>2019-02-14T13:51:32Z</time></trkpt><trkpt lat="52.8411700018" lon="8.3438932523"><ele>45.65</ele><time>2019-02-14T13:51:33Z</time></trkpt><trkpt lat="52.8417193517" lon="8.343737768"><ele>45.29</ele><time>2019-02-14T13:51:45Z</time></trkpt><trkpt lat="52.8428183869" lon="8.3434632607"><ele>45.11</ele><time>2019-02-14T13:52:07Z</time></trkpt><trkpt lat="52.8438051883" lon="8.3431258891"><ele>45.03</ele><time>2019-02-14T13:52:26Z</time></trkpt><trkpt lat="52.8448323067" lon="8.3425357193"><ele>44.82</ele><time>2019-02-14T13:52:45Z</time></trkpt><trkpt lat="52.8459175117" lon="8.3419202361"><ele>43.6</ele><time>2019-02-14T13:53:04Z</time></trkpt><trkpt lat="52.8466754872" lon="8.3415169828"><ele>42.58</ele><time>2019-02-14T13:53:17Z</time></trkpt><trkpt lat="52.8467334062" lon="8.3415171504"><ele>42.51</ele><time>2019-02-14T13:53:18Z</time></trkpt><trkpt lat="52.8467924986" lon="8.3415477443"><ele>42.43</ele><time>2019-02-14T13:53:19Z</time></trkpt><trkpt lat="52.8468427062" lon="8.3416043222"><ele>42.37</ele><time>2019-02-14T13:53:20Z</time></trkpt><trkpt lat="52.8468841128" lon="8.3416754846"><ele>42.33</ele><time>2019-02-14T13:53:21Z</time></trkpt><trkpt lat="52.846916886" lon="8.3417593874"><ele>42.34</ele><time>2019-02-14T13:53:22Z</time></trkpt><trkpt lat="52.8469432052" lon="8.3418536838"><ele>42.37</ele><time>2019-02-14T13:53:23Z</time></trkpt><trkpt lat="52.8469693568" lon="8.3419478126"><ele>42.38</ele><time>2019-02-14T13:53:24Z</time></trkpt><trkpt lat="52.8470519185" lon="8.3422370721"><ele>42.3</ele><time>2019-02-14T13:53:27Z</time></trkpt><trkpt lat="52.847184604" lon="8.3426236454"><ele>41.76</ele><time>2019-02-14T13:53:31Z</time></trkpt><trkpt lat="52.8472368233" lon="8.3426916227"><ele>41.66</ele><time>2019-02-14T13:53:32Z</time></trkpt><trkpt lat="52.8473053034" lon="8.3427246474"><ele>41.56</ele><time>2019-02-14T13:53:33Z</time></trkpt><trkpt lat="52.847374035" lon="8.3427256532"><ele>41.47</ele><time>2019-02-14T13:53:34Z</time></trkpt><trkpt lat="52.8474415932" lon="8.3427103143"><ele>41.4</ele><time>2019-02-14T13:53:35Z</time></trkpt><trkpt lat="52.8487426322" lon="8.3423123416"><ele>39.24</ele><time>2019-02-14T13:53:54Z</time></trkpt><trkpt lat="52.8497796413" lon="8.3419393469"><ele>38.19</ele><time>2019-02-14T13:54:10Z</time></trkpt><trkpt lat="52.850633841" lon="8.3415449783"><ele>38.92</ele><time>2019-02-14T13:54:25Z</time></trkpt><trkpt lat="52.8515001945" lon="8.3409966342"><ele>38.6</ele><time>2019-02-14T13:54:41Z</time></trkpt><trkpt lat="52.8527239524" lon="8.3402270917"><ele>41.12</ele><time>2019-02-14T13:55:05Z</time></trkpt><trkpt lat="52.8534069099" lon="8.3397435397"><ele>41.98</ele><time>2019-02-14T13:55:19Z</time></trkpt><trkpt lat="52.8534396831" lon="8.3396779932"><ele>42.02</ele><time>2019-02-14T13:55:20Z</time></trkpt><trkpt lat="52.8534595482" lon="8.3395972755"><ele>42.05</ele><time>2019-02-14T13:55:21Z</time></trkpt><trkpt lat="52.8534747194" lon="8.3394250274"><ele>42.03</ele><time>2019-02-14T13:55:23Z</time></trkpt><trkpt lat="52.853479581" lon="8.3393360116"><ele>41.99</ele><time>2019-02-14T13:55:24Z</time></trkpt><trkpt lat="52.8534864541" lon="8.3392454032"><ele>41.94</ele><time>2019-02-14T13:55:25Z</time></trkpt><trkpt lat="52.8535156231" lon="8.3386364579"><ele>41.51</ele><time>2019-02-14T13:55:32Z</time></trkpt><trkpt lat="52.8535224125" lon="8.3385475259"><ele>41.52</ele><time>2019-02-14T13:55:33Z</time></trkpt><trkpt lat="52.8535739612" lon="8.3371738158"><ele>42.01</ele><time>2019-02-14T13:55:48Z</time></trkpt><trkpt lat="52.8535766434" lon="8.3370041661"><ele>42.12</ele><time>2019-02-14T13:55:50Z</time></trkpt><trkpt lat="52.8535856958" lon="8.3369278908"><ele>42.17</ele><time>2019-02-14T13:55:51Z</time></trkpt><trkpt lat="52.8535939939" lon="8.3368579019"><ele>42.22</ele><time>2019-02-14T13:55:52Z</time></trkpt><trkpt lat="52.8535945807" lon="8.3367900085"><ele>42.28</ele><time>2019-02-14T13:55:53Z</time></trkpt><trkpt lat="52.853594413" lon="8.336732341"><ele>42.37</ele><time>2019-02-14T13:55:54Z</time></trkpt><trkpt lat="52.8535918985" lon="8.3366735838"><ele>42.6</ele><time>2019-02-14T13:55:55Z</time></trkpt><trkpt lat="52.8535892162" lon="8.3366309199"><ele>42.77</ele><time>2019-02-14T13:55:56Z</time></trkpt><trkpt lat="52.85358469" lon="8.3366037626"><ele>42.93</ele><time>2019-02-14T13:55:57Z</time></trkpt><trkpt lat="52.8535839356" lon="8.3365713246"><ele>43.07</ele><time>2019-02-14T13:55:58Z</time></trkpt><trkpt lat="52.8535971791" lon="8.3365355339"><ele>43.19</ele><time>2019-02-14T13:55:59Z</time></trkpt><trkpt lat="52.8536273539" lon="8.336508628"><ele>43.27</ele><time>2019-02-14T13:56:00Z</time></trkpt><trkpt lat="52.8536685091" lon="8.3364863321"><ele>43.33</ele><time>2019-02-14T13:56:01Z</time></trkpt><trkpt lat="52.8537688404" lon="8.3364500385"><ele>43.36</ele><time>2019-02-14T13:56:03Z</time></trkpt><trkpt lat="52.8542902786" lon="8.3364058658"><ele>43.25</ele><time>2019-02-14T13:56:12Z</time></trkpt><trkpt lat="52.8552225139" lon="8.336226996"><ele>42.73</ele><time>2019-02-14T13:56:27Z</time></trkpt><trkpt lat="52.8562366404" lon="8.3360440191"><ele>41.76</ele><time>2019-02-14T13:56:43Z</time></trkpt><trkpt lat="52.8569681291" lon="8.3358605392"><ele>41.44</ele><time>2019-02-14T13:56:55Z</time></trkpt><trkpt lat="52.8572894074" lon="8.3355891332"><ele>41.91</ele><time>2019-02-14T13:57:03Z</time></trkpt><trkpt lat="52.857325701" lon="8.3356071543"><ele>41.99</ele><time>2019-02-14T13:57:04Z</time></trkpt><trkpt lat="52.8573557083" lon="8.3356487285"><ele>42.07</ele><time>2019-02-14T13:57:05Z</time></trkpt><trkpt lat="52.8574182373" lon="8.3357330505"><ele>42.23</ele><time>2019-02-14T13:57:07Z</time></trkpt><trkpt lat="52.8574441373" lon="8.3357902989"><ele>42.31</ele><time>2019-02-14T13:57:08Z</time></trkpt><trkpt lat="52.8574644215" lon="8.3358575217"><ele>42.39</ele><time>2019-02-14T13:57:09Z</time></trkpt><trkpt lat="52.8574930876" lon="8.3359219786"><ele>42.51</ele><time>2019-02-14T13:57:10Z</time></trkpt><trkpt lat="52.8575373441" lon="8.3359636366"><ele>42.51</ele><time>2019-02-14T13:57:11Z</time></trkpt><trkpt lat="52.8575926647" lon="8.3359764609"><ele>42.47</ele><time>2019-02-14T13:57:12Z</time></trkpt><trkpt lat="52.8576537687" lon="8.335970426"><ele>42.38</ele><time>2019-02-14T13:57:13Z</time></trkpt><trkpt lat="52.8577178065" lon="8.3359591104"><ele>42.27</ele><time>2019-02-14T13:57:14Z</time></trkpt><trkpt lat="52.8589020856" lon="8.3356900513"><ele>39.28</ele><time>2019-02-14T13:57:31Z</time></trkpt><trkpt lat="52.8603542503" lon="8.3353505004"><ele>37.2</ele><time>2019-02-14T13:57:52Z</time></trkpt><trkpt lat="52.8613313287" lon="8.3348117955"><ele>36.1</ele><time>2019-02-14T13:58:07Z</time></trkpt><trkpt lat="52.8621549346" lon="8.3344586659"><ele>35.6</ele><time>2019-02-14T13:58:20Z</time></trkpt><trkpt lat="52.862212183" lon="8.3344056923"><ele>35.6</ele><time>2019-02-14T13:58:21Z</time></trkpt><trkpt lat="52.8622591216" lon="8.3343301713"><ele>35.6</ele><time>2019-02-14T13:58:22Z</time></trkpt><trkpt lat="52.8622928169" lon="8.3342398982"><ele>35.6</ele><time>2019-02-14T13:58:23Z</time></trkpt><trkpt lat="52.862315448" lon="8.3341414947"><ele>35.59</ele><time>2019-02-14T13:58:24Z</time></trkpt><trkpt lat="52.8623280209" lon="8.3340370562"><ele>35.56</ele><time>2019-02-14T13:58:25Z</time></trkpt><trkpt lat="52.8623331338" lon="8.3339342102"><ele>35.48</ele><time>2019-02-14T13:58:26Z</time></trkpt><trkpt lat="52.8623354807" lon="8.3338327054"><ele>35.45</ele><time>2019-02-14T13:58:27Z</time></trkpt><trkpt lat="52.8623394202" lon="8.3331372589"><ele>36.1</ele><time>2019-02-14T13:58:35Z</time></trkpt><trkpt lat="52.8623421863" lon="8.3330572955"><ele>36.21</ele><time>2019-02-14T13:58:36Z</time></trkpt><trkpt lat="52.8623394202" lon="8.3323089592"><ele>37.29</ele><time>2019-02-14T13:58:45Z</time></trkpt><trkpt lat="52.8623348102" lon="8.3322238829"><ele>37.36</ele><time>2019-02-14T13:58:46Z</time></trkpt><trkpt lat="52.862333972" lon="8.3319788799"><ele>37.52</ele><time>2019-02-14T13:58:49Z</time></trkpt><trkpt lat="52.8624136839" lon="8.3307227679"><ele>38.1</ele><time>2019-02-14T13:59:04Z</time></trkpt><trkpt lat="52.8625596967" lon="8.3296544105"><ele>37.65</ele><time>2019-02-14T13:59:17Z</time></trkpt><trkpt lat="52.86258501" lon="8.3295859303"><ele>37.69</ele><time>2019-02-14T13:59:18Z</time></trkpt><trkpt lat="52.8626222257" lon="8.3295295201"><ele>37.73</ele><time>2019-02-14T13:59:19Z</time></trkpt><trkpt lat="52.8626674041" lon="8.3294896223"><ele>37.77</ele><time>2019-02-14T13:59:20Z</time></trkpt><trkpt lat="52.8627169412" lon="8.3294748701"><ele>37.79</ele><time>2019-02-14T13:59:21Z</time></trkpt><trkpt lat="52.8627660591" lon="8.3294787258"><ele>37.8</ele><time>2019-02-14T13:59:22Z</time></trkpt><trkpt lat="52.8628166858" lon="8.3294848446"><ele>37.8</ele><time>2019-02-14T13:59:23Z</time></trkpt><trkpt lat="52.8636598215" lon="8.3294932265"><ele>38.36</ele><time>2019-02-14T13:59:39Z</time></trkpt><trkpt lat="52.8643401805" lon="8.3294409234"><ele>38.5</ele><time>2019-02-14T13:59:52Z</time></trkpt><trkpt lat="52.8643828444" lon="8.3294176217"><ele>38.48</ele><time>2019-02-14T13:59:53Z</time></trkpt><trkpt lat="52.8644225746" lon="8.3293806575"><ele>38.47</ele><time>2019-02-14T13:59:54Z</time></trkpt><trkpt lat="52.8644609638" lon="8.3293355629"><ele>38.45</ele><time>2019-02-14T13:59:55Z</time></trkpt><trkpt lat="52.864496503" lon="8.3292786498"><ele>38.43</ele><time>2019-02-14T13:59:56Z</time></trkpt><trkpt lat="52.8645286895" lon="8.3292100858"><ele>38.41</ele><time>2019-02-14T13:59:57Z</time></trkpt><trkpt lat="52.8645554278" lon="8.329135403"><ele>38.39</ele><time>2019-02-14T13:59:58Z</time></trkpt><trkpt lat="52.8645774722" lon="8.3290537633"><ele>38.37</ele><time>2019-02-14T13:59:59Z</time></trkpt><trkpt lat="52.8646011092" lon="8.3289739676"><ele>38.36</ele><time>2019-02-14T14:00:00Z</time></trkpt><trkpt lat="52.864622483" lon="8.3288917411"><ele>38.33</ele><time>2019-02-14T14:00:01Z</time></trkpt><trkpt lat="52.8646981716" lon="8.3282796945"><ele>38.27</ele><time>2019-02-14T14:00:08Z</time></trkpt><trkpt lat="52.8647160251" lon="8.3281948697"><ele>38.29</ele><time>2019-02-14T14:00:09Z</time></trkpt><trkpt lat="52.8647560906" lon="8.328137286"><ele>38.31</ele><time>2019-02-14T14:00:10Z</time></trkpt><trkpt lat="52.8648077231" lon="8.3281025849"><ele>38.33</ele><time>2019-02-14T14:00:11Z</time></trkpt><trkpt lat="52.8648617025" lon="8.3280758467"><ele>38.34</ele><time>2019-02-14T14:00:12Z</time></trkpt><trkpt lat="52.8649192862" lon="8.3280558139"><ele>38.38</ele><time>2019-02-14T14:00:13Z</time></trkpt><trkpt lat="52.8659912478" lon="8.3277683984"><ele>37.01</ele><time>2019-02-14T14:00:30Z</time></trkpt><trkpt lat="52.8669254109" lon="8.3275296818"><ele>35.92</ele><time>2019-02-14T14:00:45Z</time></trkpt><trkpt lat="52.8678363562" lon="8.3271333016"><ele>36.68</ele><time>2019-02-14T14:01:03Z</time></trkpt><trkpt lat="52.8686813358" lon="8.3265007194"><ele>36.47</ele><time>2019-02-14T14:01:21Z</time></trkpt><trkpt lat="52.8689679131" lon="8.3262450714"><ele>36.42</ele><time>2019-02-14T14:01:27Z</time></trkpt><trkpt lat="52.8692095634" lon="8.3259836398"><ele>36.44</ele><time>2019-02-14T14:01:32Z</time></trkpt><trkpt lat="52.8697858192" lon="8.3253046218"><ele>35.35</ele><time>2019-02-14T14:01:43Z</time></trkpt><trkpt lat="52.8704494983" lon="8.3245014679"><ele>32.16</ele><time>2019-02-14T14:01:54Z</time></trkpt><trkpt lat="52.8705743048" lon="8.3243464865"><ele>31.43</ele><time>2019-02-14T14:01:56Z</time></trkpt><trkpt lat="52.8706411086" lon="8.3242774196"><ele>31.11</ele><time>2019-02-14T14:01:57Z</time></trkpt><trkpt lat="52.8707081638" lon="8.3242041618"><ele>30.8</ele><time>2019-02-14T14:01:58Z</time></trkpt><trkpt lat="52.8708392568" lon="8.3240455762"><ele>30.16</ele><time>2019-02-14T14:02:00Z</time></trkpt><trkpt lat="52.8710192163" lon="8.323805267"><ele>29.13</ele><time>2019-02-14T14:02:03Z</time></trkpt><trkpt lat="52.8711285163" lon="8.3236507885"><ele>28.47</ele><time>2019-02-14T14:02:05Z</time></trkpt><trkpt lat="52.8711841721" lon="8.3235769439"><ele>28.15</ele><time>2019-02-14T14:02:06Z</time></trkpt><trkpt lat="52.871910464" lon="8.3226821758"><ele>26.03</ele><time>2019-02-14T14:02:19Z</time></trkpt><trkpt lat="52.8726707865" lon="8.3217294887"><ele>25.54</ele><time>2019-02-14T14:02:33Z</time></trkpt><trkpt lat="52.8734318633" lon="8.3208319545"><ele>23.93</ele><time>2019-02-14T14:02:47Z</time></trkpt><trkpt lat="52.8738029301" lon="8.3204198163"><ele>23.26</ele><time>2019-02-14T14:02:54Z</time></trkpt><trkpt lat="52.8738590889" lon="8.320353264"><ele>23.2</ele><time>2019-02-14T14:02:55Z</time></trkpt><trkpt lat="52.8741726559" lon="8.3199562132"><ele>22.82</ele><time>2019-02-14T14:03:01Z</time></trkpt><trkpt lat="52.8742824588" lon="8.3198283054"><ele>22.72</ele><time>2019-02-14T14:03:03Z</time></trkpt><trkpt lat="52.8743368573" lon="8.3197723981"><ele>22.7</ele><time>2019-02-14T14:03:04Z</time></trkpt><trkpt lat="52.8743905015" lon="8.3197177481"><ele>22.68</ele><time>2019-02-14T14:03:05Z</time></trkpt><trkpt lat="52.8745494224" lon="8.3195572346"><ele>22.47</ele><time>2019-02-14T14:03:08Z</time></trkpt><trkpt lat="52.8746049944" lon="8.3195035066"><ele>22.38</ele><time>2019-02-14T14:03:09Z</time></trkpt><trkpt lat="52.8747194912" lon="8.3193923626"><ele>22.16</ele><time>2019-02-14T14:03:11Z</time></trkpt><trkpt lat="52.8747742251" lon="8.3193340246"><ele>22.07</ele><time>2019-02-14T14:03:12Z</time></trkpt><trkpt lat="52.8753845114" lon="8.318705298"><ele>21.46</ele><time>2019-02-14T14:03:23Z</time></trkpt><trkpt lat="52.8754401673" lon="8.318650648"><ele>21.4</ele><time>2019-02-14T14:03:24Z</time></trkpt><trkpt lat="52.876378689" lon="8.3179518487"><ele>20.42</ele><time>2019-02-14T14:03:39Z</time></trkpt><trkpt lat="52.8768118657" lon="8.317647418"><ele>20</ele><time>2019-02-14T14:03:46Z</time></trkpt><trkpt lat="52.8773804102" lon="8.3173374552"><ele>19.56</ele><time>2019-02-14T14:03:55Z</time></trkpt><trkpt lat="52.8780308459" lon="8.3170929551"><ele>17.99</ele><time>2019-02-14T14:04:04Z</time></trkpt><trkpt lat="52.8785758372" lon="8.3168870118"><ele>16.93</ele><time>2019-02-14T14:04:12Z</time></trkpt><trkpt lat="52.878794102" lon="8.3168352954"><ele>17.37</ele><time>2019-02-14T14:04:16Z</time></trkpt><trkpt lat="52.8788398672" lon="8.3168275002"><ele>17.49</ele><time>2019-02-14T14:04:17Z</time></trkpt><trkpt lat="52.878883956" lon="8.3168197051"><ele>17.6</ele><time>2019-02-14T14:04:18Z</time></trkpt><trkpt lat="52.878984455" lon="8.3168005105"><ele>17.81</ele><time>2019-02-14T14:04:20Z</time></trkpt><trkpt lat="52.8790340759" lon="8.3167915419"><ele>17.89</ele><time>2019-02-14T14:04:21Z</time></trkpt><trkpt lat="52.8790802602" lon="8.3167742752"><ele>18</ele><time>2019-02-14T14:04:22Z</time></trkpt><trkpt lat="52.8798008524" lon="8.3163742907"><ele>20.32</ele><time>2019-02-14T14:04:36Z</time></trkpt><trkpt lat="52.880061781" lon="8.3162411023"><ele>21.39</ele><time>2019-02-14T14:04:41Z</time></trkpt><trkpt lat="52.880116934" lon="8.3162147831"><ele>21.53</ele><time>2019-02-14T14:04:42Z</time></trkpt><trkpt lat="52.8808381967" lon="8.3158509247"><ele>21.66</ele><time>2019-02-14T14:04:56Z</time></trkpt><trkpt lat="52.8808853868" lon="8.3158287127"><ele>21.69</ele><time>2019-02-14T14:04:57Z</time></trkpt><trkpt lat="52.8810625803" lon="8.3157510124"><ele>21.89</ele><time>2019-02-14T14:05:01Z</time></trkpt><trkpt lat="52.8816654067" lon="8.3154879883"><ele>22.92</ele><time>2019-02-14T14:05:14Z</time></trkpt><trkpt lat="52.8821639623" lon="8.3152737468"><ele>22.83</ele><time>2019-02-14T14:05:24Z</time></trkpt><trkpt lat="52.8822119907" lon="8.3152473439"><ele>22.77</ele><time>2019-02-14T14:05:25Z</time></trkpt><trkpt lat="52.8822554927" lon="8.315220857"><ele>22.72</ele><time>2019-02-14T14:05:26Z</time></trkpt><trkpt lat="52.8823004197" lon="8.3152049314"><ele>22.68</ele><time>2019-02-14T14:05:27Z</time></trkpt><trkpt lat="52.882348951" lon="8.3151887543"><ele>22.63</ele><time>2019-02-14T14:05:28Z</time></trkpt><trkpt lat="52.8823932074" lon="8.3151774388"><ele>22.56</ele><time>2019-02-14T14:05:29Z</time></trkpt><trkpt lat="52.8824360389" lon="8.3151611779"><ele>22.5</ele><time>2019-02-14T14:05:30Z</time></trkpt><trkpt lat="52.8824820556" lon="8.3151503652"><ele>22.44</ele><time>2019-02-14T14:05:31Z</time></trkpt><trkpt lat="52.8825290781" lon="8.3151385467"><ele>22.41</ele><time>2019-02-14T14:05:32Z</time></trkpt><trkpt lat="52.8825750947" lon="8.3151224535"><ele>22.38</ele><time>2019-02-14T14:05:33Z</time></trkpt><trkpt lat="52.8830982931" lon="8.3148580045"><ele>22.48</ele><time>2019-02-14T14:05:44Z</time></trkpt><trkpt lat="52.8832767438" lon="8.3147571702"><ele>22.72</ele><time>2019-02-14T14:05:48Z</time></trkpt><trkpt lat="52.8833224252" lon="8.3147408254"><ele>22.77</ele><time>2019-02-14T14:05:49Z</time></trkpt><trkpt lat="52.8840369824" lon="8.3143911324"><ele>23.73</ele><time>2019-02-14T14:06:03Z</time></trkpt><trkpt lat="52.8842410818" lon="8.3143073134"><ele>24.15</ele><time>2019-02-14T14:06:07Z</time></trkpt><trkpt lat="52.8846907709" lon="8.3140939102"><ele>24.42</ele><time>2019-02-14T14:06:16Z</time></trkpt><trkpt lat="52.8850931861" lon="8.3139047306"><ele>25.02</ele><time>2019-02-14T14:06:24Z</time></trkpt><trkpt lat="52.8852860536" lon="8.3138139546"><ele>25.06</ele><time>2019-02-14T14:06:28Z</time></trkpt><trkpt lat="52.8854358383" lon="8.3137348294"><ele>25.02</ele><time>2019-02-14T14:06:31Z</time></trkpt><trkpt lat="52.8854842857" lon="8.3137139585"><ele>25</ele><time>2019-02-14T14:06:32Z</time></trkpt><trkpt lat="52.8858178016" lon="8.313525198"><ele>24.68</ele><time>2019-02-14T14:06:39Z</time></trkpt><trkpt lat="52.8864557482" lon="8.3132606652"><ele>24.81</ele><time>2019-02-14T14:06:52Z</time></trkpt><trkpt lat="52.8865032736" lon="8.3132386208"><ele>24.84</ele><time>2019-02-14T14:06:53Z</time></trkpt><trkpt lat="52.8870073613" lon="8.3129843138"><ele>24.89</ele><time>2019-02-14T14:07:03Z</time></trkpt><trkpt lat="52.8870574012" lon="8.3129593357"><ele>24.88</ele><time>2019-02-14T14:07:04Z</time></trkpt><trkpt lat="52.8872039169" lon="8.3128906041"><ele>24.99</ele><time>2019-02-14T14:07:07Z</time></trkpt><trkpt lat="52.8872515261" lon="8.3128616866"><ele>25.07</ele><time>2019-02-14T14:07:08Z</time></trkpt><trkpt lat="52.8873463254" lon="8.3128134906"><ele>25.23</ele><time>2019-02-14T14:07:10Z</time></trkpt><trkpt lat="52.8874455672" lon="8.3127765264"><ele>25.39</ele><time>2019-02-14T14:07:12Z</time></trkpt><trkpt lat="52.8874964453" lon="8.3127502073"><ele>25.47</ele><time>2019-02-14T14:07:13Z</time></trkpt><trkpt lat="52.8875468206" lon="8.312724391"><ele>25.52</ele><time>2019-02-14T14:07:14Z</time></trkpt><trkpt lat="52.8875964414" lon="8.3126941323"><ele>25.58</ele><time>2019-02-14T14:07:15Z</time></trkpt><trkpt lat="52.8876436315" lon="8.3126658015"><ele>25.63</ele><time>2019-02-14T14:07:16Z</time></trkpt><trkpt lat="52.8880994394" lon="8.3124171942"><ele>25.67</ele><time>2019-02-14T14:07:25Z</time></trkpt><trkpt lat="52.8882499784" lon="8.3123638853"><ele>25.7</ele><time>2019-02-14T14:07:28Z</time></trkpt><trkpt lat="52.8882971685" lon="8.3123410027"><ele>25.7</ele><time>2019-02-14T14:07:29Z</time></trkpt><trkpt lat="52.8884794749" lon="8.3122405037"><ele>25.73</ele><time>2019-02-14T14:07:33Z</time></trkpt><trkpt lat="52.8888187744" lon="8.3120914735"><ele>25.89</ele><time>2019-02-14T14:07:40Z</time></trkpt><trkpt lat="52.889017174" lon="8.3119887952"><ele>25.98</ele><time>2019-02-14T14:07:44Z</time></trkpt><trkpt lat="52.8892674576" lon="8.3118819259"><ele>26.06</ele><time>2019-02-14T14:07:49Z</time></trkpt><trkpt lat="52.8893202636" lon="8.3118540142"><ele>26.07</ele><time>2019-02-14T14:07:50Z</time></trkpt><trkpt lat="52.8893733211" lon="8.3118228335"><ele>26.09</ele><time>2019-02-14T14:07:51Z</time></trkpt><trkpt lat="52.8895754088" lon="8.3117042296"><ele>26.17</ele><time>2019-02-14T14:07:55Z</time></trkpt><trkpt lat="52.8896771651" lon="8.3116526809"><ele>26.26</ele><time>2019-02-14T14:07:57Z</time></trkpt><trkpt lat="52.8897873033" lon="8.3116044011"><ele>26.39</ele><time>2019-02-14T14:07:59Z</time></trkpt><trkpt lat="52.8898942564" lon="8.3115216717"><ele>26.51</ele><time>2019-02-14T14:08:01Z</time></trkpt><trkpt lat="52.8899428714" lon="8.3114852943"><ele>26.62</ele><time>2019-02-14T14:08:02Z</time></trkpt><trkpt lat="52.8906561714" lon="8.3110231999"><ele>28.52</ele><time>2019-02-14T14:08:16Z</time></trkpt><trkpt lat="52.8915422224" lon="8.3105699066"><ele>30.77</ele><time>2019-02-14T14:08:36Z</time></trkpt><trkpt lat="52.8916687053" lon="8.3105041087"><ele>31.04</ele><time>2019-02-14T14:08:39Z</time></trkpt><trkpt lat="52.8917101119" lon="8.3104829025"><ele>31.13</ele><time>2019-02-14T14:08:40Z</time></trkpt><trkpt lat="52.8919466492" lon="8.3103658073"><ele>31.99</ele><time>2019-02-14T14:08:46Z</time></trkpt><trkpt lat="52.8925467934" lon="8.3100753743"><ele>33.87</ele><time>2019-02-14T14:09:01Z</time></trkpt><trkpt lat="52.893141238" lon="8.3097732905"><ele>34.24</ele><time>2019-02-14T14:09:15Z</time></trkpt><trkpt lat="52.8931855783" lon="8.309752671"><ele>34.26</ele><time>2019-02-14T14:09:16Z</time></trkpt><trkpt lat="52.893825369" lon="8.3094407804"><ele>34.59</ele><time>2019-02-14T14:09:30Z</time></trkpt><trkpt lat="52.8939143009" lon="8.3093887288"><ele>34.61</ele><time>2019-02-14T14:09:32Z</time></trkpt><trkpt lat="52.8939609043" lon="8.3093626611"><ele>34.61</ele><time>2019-02-14T14:09:33Z</time></trkpt><trkpt lat="52.8940079268" lon="8.3093401976"><ele>34.62</ele><time>2019-02-14T14:09:34Z</time></trkpt><trkpt lat="52.8944918979" lon="8.3091170713"><ele>33.93</ele><time>2019-02-14T14:09:43Z</time></trkpt><trkpt lat="52.8947106656" lon="8.309027385"><ele>33.56</ele><time>2019-02-14T14:09:47Z</time></trkpt><trkpt lat="52.8947705124" lon="8.3089954499"><ele>33.45</ele><time>2019-02-14T14:09:48Z</time></trkpt><trkpt lat="52.8948311135" lon="8.3089652751"><ele>33.31</ele><time>2019-02-14T14:09:49Z</time></trkpt><trkpt lat="52.8957418911" lon="8.3085109759"><ele>30.09</ele><time>2019-02-14T14:10:02Z</time></trkpt><trkpt lat="52.896574717" lon="8.3080943953"><ele>27.02</ele><time>2019-02-14T14:10:13Z</time></trkpt><trkpt lat="52.8973920364" lon="8.3077517431"><ele>25.32</ele><time>2019-02-14T14:10:25Z</time></trkpt><trkpt lat="52.8976334352" lon="8.3076484781"><ele>25.12</ele><time>2019-02-14T14:10:29Z</time></trkpt><trkpt lat="52.8976962157" lon="8.3076198958"><ele>25.09</ele><time>2019-02-14T14:10:30Z</time></trkpt><trkpt lat="52.8977570683" lon="8.3075947501"><ele>25.09</ele><time>2019-02-14T14:10:31Z</time></trkpt><trkpt lat="52.8978125565" lon="8.3075676765"><ele>25.09</ele><time>2019-02-14T14:10:32Z</time></trkpt><trkpt lat="52.8978696372" lon="8.3075489011"><ele>25.11</ele><time>2019-02-14T14:10:33Z</time></trkpt><trkpt lat="52.8979306575" lon="8.3075328078"><ele>25.11</ele><time>2019-02-14T14:10:34Z</time></trkpt><trkpt lat="52.8985489067" lon="8.3073180635"><ele>24.92</ele><time>2019-02-14T14:10:45Z</time></trkpt><trkpt lat="52.8987084981" lon="8.3072150499"><ele>25.6</ele><time>2019-02-14T14:10:53Z</time></trkpt><trkpt lat="52.8988071531" lon="8.3071770798"><ele>26.03</ele><time>2019-02-14T14:10:57Z</time></trkpt><trkpt lat="52.8988486435" lon="8.3071510121"><ele>26.07</ele><time>2019-02-14T14:10:58Z</time></trkpt><trkpt lat="52.8990722727" lon="8.3070457354"><ele>25.8</ele><time>2019-02-14T14:11:02Z</time></trkpt><trkpt lat="52.8993355483" lon="8.3069498464"><ele>24.92</ele><time>2019-02-14T14:11:06Z</time></trkpt><trkpt lat="52.9003143031" lon="8.3066145703"><ele>23.64</ele><time>2019-02-14T14:11:22Z</time></trkpt><trkpt lat="52.9014149308" lon="8.3062367979"><ele>23.32</ele><time>2019-02-14T14:11:40Z</time></trkpt><trkpt lat="52.9023347609" lon="8.3059543278"><ele>23.16</ele><time>2019-02-14T14:11:55Z</time></trkpt><trkpt lat="52.9030837677" lon="8.3057370689"><ele>22.1</ele><time>2019-02-14T14:12:07Z</time></trkpt><trkpt lat="52.9031441174" lon="8.3057638071"><ele>22.06</ele><time>2019-02-14T14:12:08Z</time></trkpt><trkpt lat="52.903190637" lon="8.3058267552"><ele>22.05</ele><time>2019-02-14T14:12:09Z</time></trkpt><trkpt lat="52.9032269306" lon="8.3059062157"><ele>22.05</ele><time>2019-02-14T14:12:10Z</time></trkpt><trkpt lat="52.9032615479" lon="8.3059932198"><ele>22.07</ele><time>2019-02-14T14:12:11Z</time></trkpt><trkpt lat="52.903294405" lon="8.3060870133"><ele>22.1</ele><time>2019-02-14T14:12:12Z</time></trkpt><trkpt lat="52.9037165176" lon="8.3073853701"><ele>21.54</ele><time>2019-02-14T14:12:25Z</time></trkpt><trkpt lat="52.9042622633" lon="8.3090615831"><ele>19.14</ele><time>2019-02-14T14:12:40Z</time></trkpt><trkpt lat="52.9047933407" lon="8.3106776979"><ele>19.14</ele><time>2019-02-14T14:12:57Z</time></trkpt><trkpt lat="52.9052239191" lon="8.3120037988"><ele>19.73</ele><time>2019-02-14T14:13:12Z</time></trkpt><trkpt lat="52.9056483787" lon="8.3133032452"><ele>20</ele><time>2019-02-14T14:13:27Z</time></trkpt><trkpt lat="52.9059741832" lon="8.3142455388"><ele>19.16</ele><time>2019-02-14T14:13:40Z</time></trkpt><trkpt lat="52.9063413106" lon="8.3153590746"><ele>18.47</ele><time>2019-02-14T14:13:55Z</time></trkpt><trkpt lat="52.9069076758" lon="8.3170330245"><ele>18.42</ele><time>2019-02-14T14:14:16Z</time></trkpt><trkpt lat="52.9073672555" lon="8.3183886297"><ele>18.39</ele><time>2019-02-14T14:14:33Z</time></trkpt><trkpt lat="52.9077487998" lon="8.3195696399"><ele>18</ele><time>2019-02-14T14:14:47Z</time></trkpt><trkpt lat="52.9079420865" lon="8.3201810997"><ele>17.42</ele><time>2019-02-14T14:14:54Z</time></trkpt><trkpt lat="52.9083663784" lon="8.3215319272"><ele>17.01</ele><time>2019-02-14T14:15:10Z</time></trkpt><trkpt lat="52.9084553942" lon="8.3217868209"><ele>17.07</ele><time>2019-02-14T14:15:13Z</time></trkpt><trkpt lat="52.9085002374" lon="8.3219547104"><ele>17.07</ele><time>2019-02-14T14:15:15Z</time></trkpt><trkpt lat="52.9086273909" lon="8.3224487398"><ele>17</ele><time>2019-02-14T14:15:21Z</time></trkpt><trkpt lat="52.9089991283" lon="8.3236076217"><ele>17.59</ele><time>2019-02-14T14:15:35Z</time></trkpt><trkpt lat="52.9094892181" lon="8.325020643"><ele>17.24</ele><time>2019-02-14T14:15:51Z</time></trkpt><trkpt lat="52.9099160247" lon="8.3262060955"><ele>16.55</ele><time>2019-02-14T14:16:04Z</time></trkpt><trkpt lat="52.9102377221" lon="8.3271060605"><ele>18.28</ele><time>2019-02-14T14:16:15Z</time></trkpt><trkpt lat="52.9102637898" lon="8.3271964174"><ele>18.42</ele><time>2019-02-14T14:16:16Z</time></trkpt><trkpt lat="52.9102911148" lon="8.3272848465"><ele>18.55</ele><time>2019-02-14T14:16:17Z</time></trkpt><trkpt lat="52.9108062666" lon="8.3286990412"><ele>18.73</ele><time>2019-02-14T14:16:33Z</time></trkpt><trkpt lat="52.9109134711" lon="8.3289217483"><ele>18.72</ele><time>2019-02-14T14:16:36Z</time></trkpt><trkpt lat="52.910955213" lon="8.3289854508"><ele>18.74</ele><time>2019-02-14T14:16:37Z</time></trkpt><trkpt lat="52.9110018164" lon="8.3290442917"><ele>18.74</ele><time>2019-02-14T14:16:38Z</time></trkpt><trkpt lat="52.9110531975" lon="8.3290949184"><ele>18.72</ele><time>2019-02-14T14:16:39Z</time></trkpt><trkpt lat="52.9111086857" lon="8.3291400969"><ele>18.72</ele><time>2019-02-14T14:16:40Z</time></trkpt><trkpt lat="52.9118882027" lon="8.3296078909"><ele>18.27</ele><time>2019-02-14T14:16:53Z</time></trkpt><trkpt lat="52.912843572" lon="8.3301724959"><ele>16.9</ele><time>2019-02-14T14:17:08Z</time></trkpt><trkpt lat="52.9138824251" lon="8.3307580557"><ele>16.04</ele><time>2019-02-14T14:17:24Z</time></trkpt><trkpt lat="52.9148378782" lon="8.3313711081"><ele>15.54</ele><time>2019-02-14T14:17:40Z</time></trkpt><trkpt lat="52.9156619869" lon="8.3318361361"><ele>15.35</ele><time>2019-02-14T14:17:54Z</time></trkpt><trkpt lat="52.9164754506" lon="8.3322496153"><ele>15.14</ele><time>2019-02-14T14:18:08Z</time></trkpt><trkpt lat="52.9167379718" lon="8.33238272"><ele>15.41</ele><time>2019-02-14T14:18:13Z</time></trkpt><trkpt lat="52.916782815" lon="8.3324237913"><ele>15.44</ele><time>2019-02-14T14:18:14Z</time></trkpt><trkpt lat="52.9168093018" lon="8.3324890025"><ele>15.43</ele><time>2019-02-14T14:18:15Z</time></trkpt><trkpt lat="52.916804608" lon="8.3325640205"><ele>15.41</ele><time>2019-02-14T14:18:16Z</time></trkpt><trkpt lat="52.9167719185" lon="8.3326283097"><ele>15.41</ele><time>2019-02-14T14:18:17Z</time></trkpt><trkpt lat="52.9167296737" lon="8.3326760866"><ele>15.4</ele><time>2019-02-14T14:18:18Z</time></trkpt><trkpt lat="52.91668416" lon="8.332718499"><ele>15.39</ele><time>2019-02-14T14:18:19Z</time></trkpt><trkpt lat="52.916552145" lon="8.3328488376"><ele>15.37</ele><time>2019-02-14T14:18:22Z</time></trkpt><trkpt lat="52.9164316971" lon="8.3329627477"><ele>15.47</ele><time>2019-02-14T14:18:25Z</time></trkpt><trkpt lat="52.9163917154" lon="8.3330043219"><ele>15.52</ele><time>2019-02-14T14:18:26Z</time></trkpt><trkpt lat="52.9161612131" lon="8.3331948426"><ele>15.69</ele><time>2019-02-14T14:18:32Z</time></trkpt><trkpt lat="52.9158922378" lon="8.3333992772"><ele>15.93</ele><time>2019-02-14T14:18:39Z</time></trkpt><trkpt lat="52.9154119547" lon="8.3338135947"><ele>16.57</ele><time>2019-02-14T14:18:52Z</time></trkpt><trkpt lat="52.9152478371" lon="8.3339562546"><ele>16.71</ele><time>2019-02-14T14:18:56Z</time></trkpt><trkpt lat="52.91501306" lon="8.334150631"><ele>16.95</ele><time>2019-02-14T14:19:02Z</time></trkpt><trkpt lat="52.9149016645" lon="8.3342393953"><ele>17.06</ele><time>2019-02-14T14:19:05Z</time></trkpt><trkpt lat="52.9144124966" lon="8.3346428163"><ele>17.27</ele><time>2019-02-14T14:19:18Z</time></trkpt><trkpt lat="52.9143725149" lon="8.3346713986"><ele>17.3</ele><time>2019-02-14T14:19:19Z</time></trkpt><trkpt lat="52.9137919005" lon="8.3352150489"><ele>17.73</ele><time>2019-02-14T14:19:34Z</time></trkpt><trkpt lat="52.9135356657" lon="8.3354881313"><ele>18.15</ele><time>2019-02-14T14:19:41Z</time></trkpt><trkpt lat="52.9135052394" lon="8.335537836"><ele>18.21</ele><time>2019-02-14T14:19:42Z</time></trkpt><trkpt lat="52.9134747293" lon="8.3355830144"><ele>18.24</ele><time>2019-02-14T14:19:43Z</time></trkpt><trkpt lat="52.9134438839" lon="8.3356312942"><ele>18.26</ele><time>2019-02-14T14:19:44Z</time></trkpt><trkpt lat="52.9134130385" lon="8.3356752153"><ele>18.29</ele><time>2019-02-14T14:19:45Z</time></trkpt><trkpt lat="52.9133178201" lon="8.3358329628"><ele>18.45</ele><time>2019-02-14T14:19:48Z</time></trkpt><trkpt lat="52.9128944501" lon="8.3369194251"><ele>18.95</ele><time>2019-02-14T14:20:03Z</time></trkpt><trkpt lat="52.9125613533" lon="8.3378063142"><ele>19.61</ele><time>2019-02-14T14:20:16Z</time></trkpt><trkpt lat="52.9123462737" lon="8.3383714221"><ele>19.94</ele><time>2019-02-14T14:20:24Z</time></trkpt><trkpt lat="52.9122408293" lon="8.338627154"><ele>20.09</ele><time>2019-02-14T14:20:28Z</time></trkpt><trkpt lat="52.9122138396" lon="8.3386932872"><ele>20.13</ele><time>2019-02-14T14:20:29Z</time></trkpt><trkpt lat="52.9118383303" lon="8.3396366704"><ele>20.77</ele><time>2019-02-14T14:20:43Z</time></trkpt><trkpt lat="52.9115509149" lon="8.3403779659"><ele>21.29</ele><time>2019-02-14T14:20:55Z</time></trkpt><trkpt lat="52.9114765674" lon="8.3405777067"><ele>21.38</ele><time>2019-02-14T14:20:58Z</time></trkpt><trkpt lat="52.9113607295" lon="8.3408548124"><ele>21.5</ele><time>2019-02-14T14:21:02Z</time></trkpt><trkpt lat="52.911334997" lon="8.3409312554"><ele>21.54</ele><time>2019-02-14T14:21:03Z</time></trkpt><trkpt lat="52.9109650198" lon="8.3418752253"><ele>21.49</ele><time>2019-02-14T14:21:16Z</time></trkpt><trkpt lat="52.9106472619" lon="8.3426174428"><ele>21.5</ele><time>2019-02-14T14:21:27Z</time></trkpt><trkpt lat="52.910619434" lon="8.3426981606"><ele>21.46</ele><time>2019-02-14T14:21:28Z</time></trkpt><trkpt lat="52.9105895944" lon="8.3427708317"><ele>21.4</ele><time>2019-02-14T14:21:29Z</time></trkpt><trkpt lat="52.9105607606" lon="8.3428476937"><ele>21.34</ele><time>2019-02-14T14:21:30Z</time></trkpt><trkpt lat="52.9105343577" lon="8.3429259807"><ele>21.3</ele><time>2019-02-14T14:21:31Z</time></trkpt><trkpt lat="52.9102895223" lon="8.3435685374"><ele>21.29</ele><time>2019-02-14T14:21:40Z</time></trkpt><trkpt lat="52.9101655539" lon="8.3439255226"><ele>21.33</ele><time>2019-02-14T14:21:45Z</time></trkpt><trkpt lat="52.9100942239" lon="8.3441573661"><ele>21.24</ele><time>2019-02-14T14:21:48Z</time></trkpt><trkpt lat="52.9096953291" lon="8.345185658"><ele>20.82</ele><time>2019-02-14T14:22:02Z</time></trkpt><trkpt lat="52.9096329678" lon="8.3453359455"><ele>20.61</ele><time>2019-02-14T14:22:04Z</time></trkpt><trkpt lat="52.9092041496" lon="8.3463479765"><ele>19.64</ele><time>2019-02-14T14:22:16Z</time></trkpt><trkpt lat="52.9091277905" lon="8.3465236612"><ele>19.11</ele><time>2019-02-14T14:22:18Z</time></trkpt><trkpt lat="52.9090925865" lon="8.3466134313"><ele>18.86</ele><time>2019-02-14T14:22:19Z</time></trkpt><trkpt lat="52.9085162468" lon="8.3480465692"><ele>15.81</ele><time>2019-02-14T14:22:34Z</time></trkpt><trkpt lat="52.9080314375" lon="8.3492693212"><ele>13.93</ele><time>2019-02-14T14:22:47Z</time></trkpt><trkpt lat="52.9075553454" lon="8.3504418656"><ele>12.84</ele><time>2019-02-14T14:23:00Z</time></trkpt><trkpt lat="52.9070323147" lon="8.351711724"><ele>12.68</ele><time>2019-02-14T14:23:15Z</time></trkpt><trkpt lat="52.9069426283" lon="8.3519247919"><ele>12.91</ele><time>2019-02-14T14:23:18Z</time></trkpt><trkpt lat="52.9069133755" lon="8.3519878238"><ele>13.02</ele><time>2019-02-14T14:23:19Z</time></trkpt><trkpt lat="52.9068324063" lon="8.3521914203"><ele>13.37</ele><time>2019-02-14T14:23:22Z</time></trkpt><trkpt lat="52.9068085179" lon="8.3522528596"><ele>13.53</ele><time>2019-02-14T14:23:23Z</time></trkpt><trkpt lat="52.9067066777" lon="8.3525165543"><ele>14.23</ele><time>2019-02-14T14:23:27Z</time></trkpt><trkpt lat="52.906574579" lon="8.352838587"><ele>15.27</ele><time>2019-02-14T14:23:32Z</time></trkpt><trkpt lat="52.9065480921" lon="8.3529050555"><ele>15.42</ele><time>2019-02-14T14:23:33Z</time></trkpt><trkpt lat="52.9065207671" lon="8.3529737033"><ele>15.57</ele><time>2019-02-14T14:23:34Z</time></trkpt><trkpt lat="52.9064910952" lon="8.3530362323"><ele>15.71</ele><time>2019-02-14T14:23:35Z</time></trkpt><trkpt lat="52.9064625129" lon="8.3530969173"><ele>15.87</ele><time>2019-02-14T14:23:36Z</time></trkpt><trkpt lat="52.9064352717" lon="8.3531593625"><ele>16.08</ele><time>2019-02-14T14:23:37Z</time></trkpt><trkpt lat="52.9060551524" lon="8.3540218603"><ele>18.66</ele><time>2019-02-14T14:23:51Z</time></trkpt><trkpt lat="52.9057270009" lon="8.3547096793"><ele>18.85</ele><time>2019-02-14T14:24:01Z</time></trkpt><trkpt lat="52.90569406" lon="8.354778327"><ele>18.76</ele><time>2019-02-14T14:24:02Z</time></trkpt><trkpt lat="52.9056601971" lon="8.3548506629"><ele>18.63</ele><time>2019-02-14T14:24:03Z</time></trkpt><trkpt lat="52.9056307767" lon="8.3549265191"><ele>18.49</ele><time>2019-02-14T14:24:04Z</time></trkpt><trkpt lat="52.9056004342" lon="8.3550017886"><ele>18.33</ele><time>2019-02-14T14:24:05Z</time></trkpt><trkpt lat="52.905567158" lon="8.3550774772"><ele>18.16</ele><time>2019-02-14T14:24:06Z</time></trkpt><trkpt lat="52.9054690059" lon="8.3553152718"><ele>17.65</ele><time>2019-02-14T14:24:09Z</time></trkpt><trkpt lat="52.9053088278" lon="8.355775103"><ele>16.61</ele><time>2019-02-14T14:24:14Z</time></trkpt><trkpt lat="52.9050299618" lon="8.3567047399"><ele>13.99</ele><time>2019-02-14T14:24:23Z</time></trkpt><trkpt lat="52.9048001301" lon="8.357965881"><ele>10.92</ele><time>2019-02-14T14:24:34Z</time></trkpt><trkpt lat="52.9047328234" lon="8.3586121257"><ele>10.24</ele><time>2019-02-14T14:24:40Z</time></trkpt><trkpt lat="52.9047275428" lon="8.3587205876"><ele>10.13</ele><time>2019-02-14T14:24:41Z</time></trkpt><trkpt lat="52.9045962822" lon="8.3595928922"><ele>9.26</ele><time>2019-02-14T14:24:49Z</time></trkpt><trkpt lat="52.9045627546" lon="8.3596917149"><ele>9.11</ele><time>2019-02-14T14:24:50Z</time></trkpt><trkpt lat="52.9040788673" lon="8.3609585557"><ele>7.07</ele><time>2019-02-14T14:25:03Z</time></trkpt><trkpt lat="52.9039958026" lon="8.3611559495"><ele>6.87</ele><time>2019-02-14T14:25:05Z</time></trkpt><trkpt lat="52.903949786" lon="8.3612459712"><ele>6.79</ele><time>2019-02-14T14:25:06Z</time></trkpt><trkpt lat="52.9039011709" lon="8.3613297064"><ele>6.54</ele><time>2019-02-14T14:25:07Z</time></trkpt><trkpt lat="52.9031682573" lon="8.3623445034"><ele>6.12</ele><time>2019-02-14T14:25:22Z</time></trkpt><trkpt lat="52.9025455657" lon="8.3633613959"><ele>7.98</ele><time>2019-02-14T14:25:38Z</time></trkpt><trkpt lat="52.9019463435" lon="8.3647258859"><ele>9.01</ele><time>2019-02-14T14:25:58Z</time></trkpt><trkpt lat="52.9014566727" lon="8.3658641484"><ele>10.59</ele><time>2019-02-14T14:26:16Z</time></trkpt><trkpt lat="52.9010655731" lon="8.3667393029"><ele>11.68</ele><time>2019-02-14T14:26:30Z</time></trkpt><trkpt lat="52.9009379167" lon="8.367055133"><ele>12.19</ele><time>2019-02-14T14:26:36Z</time></trkpt><trkpt lat="52.900917381" lon="8.3670995571"><ele>12.28</ele><time>2019-02-14T14:26:37Z</time></trkpt><trkpt lat="52.900900282" lon="8.3671497647"><ele>12.38</ele><time>2019-02-14T14:26:38Z</time></trkpt><trkpt lat="52.9008788243" lon="8.3671987988"><ele>12.47</ele><time>2019-02-14T14:26:39Z</time></trkpt><trkpt lat="52.9008541815" lon="8.3672557957"><ele>12.55</ele><time>2019-02-14T14:26:40Z</time></trkpt><trkpt lat="52.9006787483" lon="8.3676923253"><ele>13.46</ele><time>2019-02-14T14:26:48Z</time></trkpt><trkpt lat="52.900654776" lon="8.3677480649"><ele>13.54</ele><time>2019-02-14T14:26:49Z</time></trkpt><trkpt lat="52.9006294627" lon="8.3678053971"><ele>13.61</ele><time>2019-02-14T14:26:50Z</time></trkpt><trkpt lat="52.9006048199" lon="8.3678634837"><ele>13.67</ele><time>2019-02-14T14:26:51Z</time></trkpt><trkpt lat="52.9005781654" lon="8.3679153677"><ele>13.72</ele><time>2019-02-14T14:26:52Z</time></trkpt><trkpt lat="52.9003042448" lon="8.3684762008"><ele>14.35</ele><time>2019-02-14T14:27:02Z</time></trkpt><trkpt lat="52.9002229404" lon="8.368674852"><ele>14.62</ele><time>2019-02-14T14:27:05Z</time></trkpt><trkpt lat="52.9001635127" lon="8.3687968086"><ele>14.81</ele><time>2019-02-14T14:27:07Z</time></trkpt><trkpt lat="52.9001104552" lon="8.3689242136"><ele>15.01</ele><time>2019-02-14T14:27:09Z</time></trkpt><trkpt lat="52.8998106346" lon="8.3696232643"><ele>15.88</ele><time>2019-02-14T14:27:20Z</time></trkpt><trkpt lat="52.8995132446" lon="8.3702712692"><ele>16.54</ele><time>2019-02-14T14:27:30Z</time></trkpt><trkpt lat="52.8992157709" lon="8.3709286619"><ele>17.23</ele><time>2019-02-14T14:27:40Z</time></trkpt><trkpt lat="52.8991808183" lon="8.3709787857"><ele>17.27</ele><time>2019-02-14T14:27:41Z</time></trkpt><trkpt lat="52.8991459496" lon="8.3710175101"><ele>17.28</ele><time>2019-02-14T14:27:42Z</time></trkpt><trkpt lat="52.8991120029" lon="8.371042069"><ele>17.29</ele><time>2019-02-14T14:27:43Z</time></trkpt><trkpt lat="52.89907814" lon="8.3710705675"><ele>17.29</ele><time>2019-02-14T14:27:44Z</time></trkpt><trkpt lat="52.8990393318" lon="8.3711021673"><ele>17.29</ele><time>2019-02-14T14:27:45Z</time></trkpt><trkpt lat="52.8990112524" lon="8.371151872"><ele>17.31</ele><time>2019-02-14T14:27:46Z</time></trkpt><trkpt lat="52.898992477" lon="8.3712097909"><ele>17.34</ele><time>2019-02-14T14:27:47Z</time></trkpt><trkpt lat="52.8989674989" lon="8.3712739125"><ele>17.37</ele><time>2019-02-14T14:27:48Z</time></trkpt><trkpt lat="52.8989504836" lon="8.3713471703"><ele>17.41</ele><time>2019-02-14T14:27:49Z</time></trkpt><trkpt lat="52.898944784" lon="8.371430235"><ele>17.43</ele><time>2019-02-14T14:27:50Z</time></trkpt><trkpt lat="52.8989412636" lon="8.3715066779"><ele>17.45</ele><time>2019-02-14T14:27:51Z</time></trkpt><trkpt lat="52.89890958" lon="8.3726434316"><ele>17.04</ele><time>2019-02-14T14:28:04Z</time></trkpt><trkpt lat="52.8989066463" lon="8.3730011713"><ele>16.96</ele><time>2019-02-14T14:28:08Z</time></trkpt><trkpt lat="52.8989094961" lon="8.3730870858"><ele>16.91</ele><time>2019-02-14T14:28:09Z</time></trkpt><trkpt lat="52.8989042994" lon="8.373680776"><ele>16.7</ele><time>2019-02-14T14:28:16Z</time></trkpt><trkpt lat="52.8987846058" lon="8.3749094792"><ele>15.95</ele><time>2019-02-14T14:28:29Z</time></trkpt><trkpt lat="52.8987865336" lon="8.3749974892"><ele>15.93</ele><time>2019-02-14T14:28:30Z</time></trkpt><trkpt lat="52.8987983521" lon="8.376005413"><ele>15.52</ele><time>2019-02-14T14:28:41Z</time></trkpt><trkpt lat="52.8987983521" lon="8.3760926686"><ele>15.49</ele><time>2019-02-14T14:28:42Z</time></trkpt><trkpt lat="52.898796089" lon="8.3771570865"><ele>15.41</ele><time>2019-02-14T14:28:54Z</time></trkpt><trkpt lat="52.8987881262" lon="8.3772392292"><ele>15.4</ele><time>2019-02-14T14:28:55Z</time></trkpt><trkpt lat="52.898779409" lon="8.37732221"><ele>15.39</ele><time>2019-02-14T14:28:56Z</time></trkpt><trkpt lat="52.8987586219" lon="8.3775012475"><ele>15.36</ele><time>2019-02-14T14:28:58Z</time></trkpt><trkpt lat="52.8987437021" lon="8.3775810432"><ele>15.34</ele><time>2019-02-14T14:28:59Z</time></trkpt><trkpt lat="52.8987156227" lon="8.3776236232"><ele>15.33</ele><time>2019-02-14T14:29:00Z</time></trkpt><trkpt lat="52.8986295406" lon="8.377657989"><ele>15.27</ele><time>2019-02-14T14:29:02Z</time></trkpt><trkpt lat="52.8981412109" lon="8.3778335061"><ele>16.31</ele><time>2019-02-14T14:29:13Z</time></trkpt><trkpt lat="52.897638632" lon="8.3780334983"><ele>17.46</ele><time>2019-02-14T14:29:24Z</time></trkpt><trkpt lat="52.8975934535" lon="8.3780473284"><ele>17.52</ele><time>2019-02-14T14:29:25Z</time></trkpt><trkpt lat="52.8975521307" lon="8.3780682832"><ele>17.57</ele><time>2019-02-14T14:29:26Z</time></trkpt><trkpt lat="52.8973768651" lon="8.3781526051"><ele>17.79</ele><time>2019-02-14T14:29:30Z</time></trkpt><trkpt lat="52.8973352909" lon="8.3781735599"><ele>17.85</ele><time>2019-02-14T14:29:31Z</time></trkpt><trkpt lat="52.8972948901" lon="8.3781954367"><ele>17.94</ele><time>2019-02-14T14:29:32Z</time></trkpt><trkpt lat="52.8967512399" lon="8.3784436248"><ele>19.34</ele><time>2019-02-14T14:29:44Z</time></trkpt><trkpt lat="52.8960873093" lon="8.3786685113"><ele>20.12</ele><time>2019-02-14T14:29:58Z</time></trkpt><trkpt lat="52.8952114843" lon="8.3790260833"><ele>21.37</ele><time>2019-02-14T14:30:17Z</time></trkpt><trkpt lat="52.8944509942" lon="8.3793399855"><ele>22.46</ele><time>2019-02-14T14:30:34Z</time></trkpt><trkpt lat="52.8933282383" lon="8.3797765989"><ele>23.02</ele><time>2019-02-14T14:30:58Z</time></trkpt><trkpt lat="52.8924445342" lon="8.3800594881"><ele>24.26</ele><time>2019-02-14T14:31:17Z</time></trkpt><trkpt lat="52.8922582045" lon="8.3801372722"><ele>24.54</ele><time>2019-02-14T14:31:21Z</time></trkpt><trkpt lat="52.8922147863" lon="8.380167447"><ele>24.6</ele><time>2019-02-14T14:31:22Z</time></trkpt><trkpt lat="52.8920846991" lon="8.3802784234"><ele>24.75</ele><time>2019-02-14T14:31:25Z</time></trkpt><trkpt lat="52.8920034785" lon="8.3803748153"><ele>24.84</ele><time>2019-02-14T14:31:27Z</time></trkpt><trkpt lat="52.8919679392" lon="8.380432399"><ele>24.88</ele><time>2019-02-14T14:31:28Z</time></trkpt><trkpt lat="52.8919348307" lon="8.3804924134"><ele>24.91</ele><time>2019-02-14T14:31:29Z</time></trkpt><trkpt lat="52.8915920109" lon="8.3813759498"><ele>25.64</ele><time>2019-02-14T14:31:42Z</time></trkpt><trkpt lat="52.8911497816" lon="8.3826323971"><ele>26.29</ele><time>2019-02-14T14:32:00Z</time></trkpt><trkpt lat="52.8909475263" lon="8.3831812441"><ele>26.76</ele><time>2019-02-14T14:32:08Z</time></trkpt><trkpt lat="52.8908559121" lon="8.3833583537"><ele>26.86</ele><time>2019-02-14T14:32:11Z</time></trkpt><trkpt lat="52.8908195347" lon="8.3834030293"><ele>26.87</ele><time>2019-02-14T14:32:12Z</time></trkpt><trkpt lat="52.890740158" lon="8.3834777959"><ele>26.88</ele><time>2019-02-14T14:32:14Z</time></trkpt><trkpt lat="52.8906082269" lon="8.3835715894"><ele>26.85</ele><time>2019-02-14T14:32:17Z</time></trkpt><trkpt lat="52.8897397779" lon="8.3842329215"><ele>27.53</ele><time>2019-02-14T14:32:37Z</time></trkpt><trkpt lat="52.8892100416" lon="8.3846352529"><ele>27.37</ele><time>2019-02-14T14:32:49Z</time></trkpt><trkpt lat="52.8890173417" lon="8.3848921582"><ele>27.19</ele><time>2019-02-14T14:32:54Z</time></trkpt><trkpt lat="52.8888925351" lon="8.3851735387"><ele>26.98</ele><time>2019-02-14T14:32:58Z</time></trkpt><trkpt lat="52.8884063847" lon="8.3867243584"><ele>25.92</ele><time>2019-02-14T14:33:17Z</time></trkpt><trkpt lat="52.8879439551" lon="8.3880987391"><ele>25.74</ele><time>2019-02-14T14:33:34Z</time></trkpt><trkpt lat="52.887274744" lon="8.389535062"><ele>24.38</ele><time>2019-02-14T14:33:52Z</time></trkpt><trkpt lat="52.8869694751" lon="8.3901927061"><ele>23.89</ele><time>2019-02-14T14:34:01Z</time></trkpt><trkpt lat="52.8863254096" lon="8.3910496719"><ele>23.87</ele><time>2019-02-14T14:34:16Z</time></trkpt><trkpt lat="52.8859612159" lon="8.3915013727"><ele>23.32</ele><time>2019-02-14T14:34:24Z</time></trkpt><trkpt lat="52.8859334718" lon="8.3915874548"><ele>23.27</ele><time>2019-02-14T14:34:25Z</time></trkpt><trkpt lat="52.8859289456" lon="8.3916843496"><ele>23.21</ele><time>2019-02-14T14:34:26Z</time></trkpt><trkpt lat="52.8859546781" lon="8.3917753771"><ele>23.14</ele><time>2019-02-14T14:34:27Z</time></trkpt><trkpt lat="52.8860027902" lon="8.3918430191"><ele>23.03</ele><time>2019-02-14T14:34:28Z</time></trkpt><trkpt lat="52.8860601224" lon="8.3918978367"><ele>22.91</ele><time>2019-02-14T14:34:29Z</time></trkpt><trkpt lat="52.886980623" lon="8.3928732388"><ele>20.33</ele><time>2019-02-14T14:34:44Z</time></trkpt><trkpt lat="52.8871588223" lon="8.3931071777"><ele>19.9</ele><time>2019-02-14T14:34:47Z</time></trkpt><trkpt lat="52.8872106224" lon="8.3932015579"><ele>19.77</ele><time>2019-02-14T14:34:48Z</time></trkpt><trkpt lat="52.8872559685" lon="8.3933080081"><ele>19.63</ele><time>2019-02-14T14:34:49Z</time></trkpt><trkpt lat="52.8872898314" lon="8.3934255224"><ele>19.46</ele><time>2019-02-14T14:34:50Z</time></trkpt><trkpt lat="52.8873124626" lon="8.3935482334"><ele>19.26</ele><time>2019-02-14T14:34:51Z</time></trkpt><trkpt lat="52.8873241972" lon="8.3936707769"><ele>19.08</ele><time>2019-02-14T14:34:52Z</time></trkpt><trkpt lat="52.8873290587" lon="8.3937960025"><ele>18.89</ele><time>2019-02-14T14:34:53Z</time></trkpt><trkpt lat="52.8873511031" lon="8.3942874335"><ele>18.35</ele><time>2019-02-14T14:34:57Z</time></trkpt><trkpt lat="52.8873842116" lon="8.3952212613"><ele>17.9</ele><time>2019-02-14T14:35:05Z</time></trkpt><trkpt lat="52.8874002211" lon="8.3953280468"><ele>17.92</ele><time>2019-02-14T14:35:06Z</time></trkpt><trkpt lat="52.8875651769" lon="8.3961926401"><ele>19.23</ele><time>2019-02-14T14:35:16Z</time></trkpt><trkpt lat="52.8875768278" lon="8.3962648083"><ele>19.38</ele><time>2019-02-14T14:35:17Z</time></trkpt><trkpt lat="52.8877209965" lon="8.3970942814"><ele>21.05</ele><time>2019-02-14T14:35:28Z</time></trkpt><trkpt lat="52.8877363354" lon="8.3971733227"><ele>21.09</ele><time>2019-02-14T14:35:29Z</time></trkpt><trkpt lat="52.8878029715" lon="8.3974632528"><ele>21.23</ele><time>2019-02-14T14:35:33Z</time></trkpt><trkpt lat="52.887872206" lon="8.3977648336"><ele>21.31</ele><time>2019-02-14T14:35:37Z</time></trkpt><trkpt lat="52.8879095055" lon="8.397917971"><ele>21.38</ele><time>2019-02-14T14:35:39Z</time></trkpt><trkpt lat="52.8879990242" lon="8.3983063046"><ele>21.64</ele><time>2019-02-14T14:35:44Z</time></trkpt><trkpt lat="52.8880794905" lon="8.3986962307"><ele>21.96</ele><time>2019-02-14T14:35:49Z</time></trkpt><trkpt lat="52.8881996032" lon="8.3993314952"><ele>23.07</ele><time>2019-02-14T14:35:57Z</time></trkpt><trkpt lat="52.8883448616" lon="8.3999035601"><ele>24.35</ele><time>2019-02-14T14:36:04Z</time></trkpt><trkpt lat="52.8883815743" lon="8.4000673424"><ele>24.64</ele><time>2019-02-14T14:36:06Z</time></trkpt><trkpt lat="52.8884166107" lon="8.4002293646"><ele>24.92</ele><time>2019-02-14T14:36:08Z</time></trkpt><trkpt lat="52.8884917963" lon="8.400546452"><ele>25.34</ele><time>2019-02-14T14:36:12Z</time></trkpt><trkpt lat="52.8885137569" lon="8.4006240685"><ele>25.42</ele><time>2019-02-14T14:36:13Z</time></trkpt><trkpt lat="52.8885316942" lon="8.4007066302"><ele>25.49</ele><time>2019-02-14T14:36:14Z</time></trkpt><trkpt lat="52.8886199556" lon="8.4011006635"><ele>25.75</ele><time>2019-02-14T14:36:19Z</time></trkpt><trkpt lat="52.8889135737" lon="8.402576549"><ele>25.96</ele><time>2019-02-14T14:36:36Z</time></trkpt><trkpt lat="52.8892679606" lon="8.4043535125"><ele>25.36</ele><time>2019-02-14T14:36:55Z</time></trkpt><trkpt lat="52.8894300666" lon="8.4063530155"><ele>25.12</ele><time>2019-02-14T14:37:15Z</time></trkpt><trkpt lat="52.8896789253" lon="8.4076865762"><ele>25.35</ele><time>2019-02-14T14:37:29Z</time></trkpt><trkpt lat="52.8896985389" lon="8.4077838901"><ele>25.37</ele><time>2019-02-14T14:37:30Z</time></trkpt><trkpt lat="52.88971656" lon="8.4078827128"><ele>25.37</ele><time>2019-02-14T14:37:31Z</time></trkpt><trkpt lat="52.8901266027" lon="8.40983117"><ele>24.55</ele><time>2019-02-14T14:37:50Z</time></trkpt><trkpt lat="52.8904042114" lon="8.4118035994"><ele>23.2</ele><time>2019-02-14T14:38:09Z</time></trkpt><trkpt lat="52.8906687442" lon="8.4139520489"><ele>21.79</ele><time>2019-02-14T14:38:29Z</time></trkpt><trkpt lat="52.8908957262" lon="8.4154656529"><ele>21.97</ele><time>2019-02-14T14:38:44Z</time></trkpt><trkpt lat="52.8909041919" lon="8.4155584406"><ele>22.03</ele><time>2019-02-14T14:38:45Z</time></trkpt><trkpt lat="52.8909079637" lon="8.4156452771"><ele>22.11</ele><time>2019-02-14T14:38:46Z</time></trkpt><trkpt lat="52.8909056168" lon="8.4157957323"><ele>22.9</ele><time>2019-02-14T14:38:53Z</time></trkpt><trkpt lat="52.890880052" lon="8.4158877656"><ele>23.61</ele><time>2019-02-14T14:39:20Z</time></trkpt><trkpt lat="52.8908760287" lon="8.4159170184"><ele>23.62</ele><time>2019-02-14T14:39:21Z</time></trkpt><trkpt lat="52.8908755258" lon="8.4159566648"><ele>23.64</ele><time>2019-02-14T14:39:22Z</time></trkpt><trkpt lat="52.8908822313" lon="8.4160044417"><ele>23.65</ele><time>2019-02-14T14:39:23Z</time></trkpt><trkpt lat="52.8908965643" lon="8.4160549007"><ele>23.65</ele><time>2019-02-14T14:39:24Z</time></trkpt><trkpt lat="52.8909147531" lon="8.4161113948"><ele>23.62</ele><time>2019-02-14T14:39:25Z</time></trkpt><trkpt lat="52.8910985682" lon="8.4166488424"><ele>23.47</ele><time>2019-02-14T14:39:33Z</time></trkpt><trkpt lat="52.8911149967" lon="8.4167277161"><ele>23.47</ele><time>2019-02-14T14:39:34Z</time></trkpt><trkpt lat="52.89113109" lon="8.4168089367"><ele>23.47</ele><time>2019-02-14T14:39:35Z</time></trkpt><trkpt lat="52.8914752509" lon="8.4178244881"><ele>23.55</ele><time>2019-02-14T14:39:47Z</time></trkpt><trkpt lat="52.8918622434" lon="8.4189433884"><ele>23.66</ele><time>2019-02-14T14:40:00Z</time></trkpt><trkpt lat="52.8919224255" lon="8.419106584"><ele>23.67</ele><time>2019-02-14T14:40:02Z</time></trkpt><trkpt lat="52.891946733" lon="8.4191961866"><ele>23.69</ele><time>2019-02-14T14:40:03Z</time></trkpt><trkpt lat="52.8920425382" lon="8.4196798224"><ele>23.65</ele><time>2019-02-14T14:40:08Z</time></trkpt><trkpt lat="52.8920821007" lon="8.4199818224"><ele>23.45</ele><time>2019-02-14T14:40:11Z</time></trkpt><trkpt lat="52.8921283688" lon="8.4201971535"><ele>23.31</ele><time>2019-02-14T14:40:13Z</time></trkpt><trkpt lat="52.8921647463" lon="8.4204112273"><ele>23.14</ele><time>2019-02-14T14:40:15Z</time></trkpt><trkpt lat="52.892192658" lon="8.4205114748"><ele>23.01</ele><time>2019-02-14T14:40:16Z</time></trkpt><trkpt lat="52.8922228329" lon="8.4206133988"><ele>22.88</ele><time>2019-02-14T14:40:17Z</time></trkpt><trkpt lat="52.8925929777" lon="8.4223448485"><ele>20.35</ele><time>2019-02-14T14:40:32Z</time></trkpt><trkpt lat="52.8928829078" lon="8.423767928"><ele>18.36</ele><time>2019-02-14T14:40:44Z</time></trkpt><trkpt lat="52.8931094706" lon="8.4247864131"><ele>17.7</ele><time>2019-02-14T14:40:53Z</time></trkpt><trkpt lat="52.8934957087" lon="8.426381154"><ele>16.45</ele><time>2019-02-14T14:41:07Z</time></trkpt><trkpt lat="52.893671561" lon="8.4270665422"><ele>16.14</ele><time>2019-02-14T14:41:13Z</time></trkpt><trkpt lat="52.8941519279" lon="8.4290732536"><ele>14.63</ele><time>2019-02-14T14:41:31Z</time></trkpt><trkpt lat="52.8943967633" lon="8.4306151886"><ele>13.47</ele><time>2019-02-14T14:41:45Z</time></trkpt><trkpt lat="52.8943805024" lon="8.4311072901"><ele>13.26</ele><time>2019-02-14T14:41:50Z</time></trkpt><trkpt lat="52.894375138" lon="8.4313082043"><ele>13.32</ele><time>2019-02-14T14:41:57Z</time></trkpt><trkpt lat="52.8943783231" lon="8.4313281532"><ele>13.38</ele><time>2019-02-14T14:41:59Z</time></trkpt><trkpt lat="52.8943796642" lon="8.4313541371"><ele>13.38</ele><time>2019-02-14T14:42:00Z</time></trkpt><trkpt lat="52.8943782393" lon="8.4313832223"><ele>13.39</ele><time>2019-02-14T14:42:01Z</time></trkpt><trkpt lat="52.8943355754" lon="8.43165664"><ele>13.58</ele><time>2019-02-14T14:42:07Z</time></trkpt><trkpt lat="52.8943438735" lon="8.4317297302"><ele>13.58</ele><time>2019-02-14T14:42:08Z</time></trkpt><trkpt lat="52.8943628166" lon="8.4318010602"><ele>13.54</ele><time>2019-02-14T14:42:09Z</time></trkpt><trkpt lat="52.8943906445" lon="8.4318630025"><ele>13.48</ele><time>2019-02-14T14:42:10Z</time></trkpt><trkpt lat="52.8944231663" lon="8.4319122043"><ele>13.41</ele><time>2019-02-14T14:42:11Z</time></trkpt><trkpt lat="52.8944612201" lon="8.4319495875"><ele>13.35</ele><time>2019-02-14T14:42:12Z</time></trkpt><trkpt lat="52.8945280239" lon="8.4320286289"><ele>13.3</ele><time>2019-02-14T14:42:19Z</time></trkpt><trkpt lat="52.8946154471" lon="8.432187885"><ele>13.78</ele><time>2019-02-14T14:42:51Z</time></trkpt><trkpt lat="52.8947141021" lon="8.4322307166"><ele>13.72</ele><time>2019-02-14T14:42:53Z</time></trkpt><trkpt lat="52.8947687522" lon="8.4322435409"><ele>13.66</ele><time>2019-02-14T14:42:54Z</time></trkpt><trkpt lat="52.8948254976" lon="8.4322511684"><ele>13.59</ele><time>2019-02-14T14:42:55Z</time></trkpt><trkpt lat="52.8956505284" lon="8.4322183952"><ele>13.53</ele><time>2019-02-14T14:43:09Z</time></trkpt><trkpt lat="52.8965287004" lon="8.4325778112"><ele>14.01</ele><time>2019-02-14T14:43:24Z</time></trkpt><trkpt lat="52.8969196323" lon="8.4328646399"><ele>14.02</ele><time>2019-02-14T14:43:31Z</time></trkpt><trkpt lat="52.897698814" lon="8.4334769379"><ele>13.32</ele><time>2019-02-14T14:43:45Z</time></trkpt><trkpt lat="52.8978677094" lon="8.433599649"><ele>13.37</ele><time>2019-02-14T14:43:48Z</time></trkpt><trkpt lat="52.8979275562" lon="8.4336289018"><ele>13.4</ele><time>2019-02-14T14:43:49Z</time></trkpt><trkpt lat="52.8987545148" lon="8.4338210989"><ele>12.82</ele><time>2019-02-14T14:44:02Z</time></trkpt><trkpt lat="52.8996076249" lon="8.4342867136"><ele>11.05</ele><time>2019-02-14T14:44:15Z</time></trkpt><trkpt lat="52.8998883348" lon="8.4347048867"><ele>10.14</ele><time>2019-02-14T14:44:20Z</time></trkpt><trkpt lat="52.8999330103" lon="8.4348033741"><ele>9.93</ele><time>2019-02-14T14:44:21Z</time></trkpt><trkpt lat="52.8999781888" lon="8.4348948207"><ele>9.77</ele><time>2019-02-14T14:44:22Z</time></trkpt><trkpt lat="52.9000310786" lon="8.4349750355"><ele>9.64</ele><time>2019-02-14T14:44:23Z</time></trkpt><trkpt lat="52.9000873212" lon="8.4350431804"><ele>9.54</ele><time>2019-02-14T14:44:24Z</time></trkpt><trkpt lat="52.9001478385" lon="8.4350969922"><ele>9.46</ele><time>2019-02-14T14:44:25Z</time></trkpt><trkpt lat="52.9002048355" lon="8.4351538215"><ele>9.37</ele><time>2019-02-14T14:44:26Z</time></trkpt><trkpt lat="52.9002424702" lon="8.4352358803"><ele>9.31</ele><time>2019-02-14T14:44:27Z</time></trkpt><trkpt lat="52.9002663586" lon="8.4353330266"><ele>9.23</ele><time>2019-02-14T14:44:28Z</time></trkpt><trkpt lat="52.9003920872" lon="8.4359064326"><ele>8.99</ele><time>2019-02-14T14:44:34Z</time></trkpt><trkpt lat="52.9004149698" lon="8.4359993041"><ele>8.98</ele><time>2019-02-14T14:44:35Z</time></trkpt><trkpt lat="52.9007680994" lon="8.4373412468"><ele>8.65</ele><time>2019-02-14T14:44:49Z</time></trkpt><trkpt lat="52.9011581931" lon="8.4390892927"><ele>8.74</ele><time>2019-02-14T14:45:08Z</time></trkpt><trkpt lat="52.9014938045" lon="8.4407329001"><ele>9.19</ele><time>2019-02-14T14:45:26Z</time></trkpt><trkpt lat="52.9017876741" lon="8.4427400306"><ele>7.88</ele><time>2019-02-14T14:45:45Z</time></trkpt><trkpt lat="52.9018346965" lon="8.4439948015"><ele>8.78</ele><time>2019-02-14T14:45:59Z</time></trkpt><trkpt lat="52.901818268" lon="8.444221532"><ele>8.99</ele><time>2019-02-14T14:46:02Z</time></trkpt><trkpt lat="52.9017968103" lon="8.444277104"><ele>9.03</ele><time>2019-02-14T14:46:03Z</time></trkpt><trkpt lat="52.9017607681" lon="8.4443048481"><ele>9.06</ele><time>2019-02-14T14:46:04Z</time></trkpt><trkpt lat="52.9017171822" lon="8.4443167504"><ele>9.08</ele><time>2019-02-14T14:46:05Z</time></trkpt><trkpt lat="52.9016680643" lon="8.4443245456"><ele>9.08</ele><time>2019-02-14T14:46:06Z</time></trkpt><trkpt lat="52.9015707504" lon="8.4443408903"><ele>9.05</ele><time>2019-02-14T14:46:08Z</time></trkpt><trkpt lat="52.9014744423" lon="8.4443647787"><ele>8.98</ele><time>2019-02-14T14:46:10Z</time></trkpt><trkpt lat="52.9014242347" lon="8.4443637729"><ele>8.92</ele><time>2019-02-14T14:46:11Z</time></trkpt><trkpt lat="52.901373608" lon="8.4443522897"><ele>8.86</ele><time>2019-02-14T14:46:12Z</time></trkpt><trkpt lat="52.9012214765" lon="8.4443161637"><ele>8.73</ele><time>2019-02-14T14:46:15Z</time></trkpt><trkpt lat="52.9011708498" lon="8.4443306644"><ele>8.69</ele><time>2019-02-14T14:46:16Z</time></trkpt><trkpt lat="52.9011273477" lon="8.4443775192"><ele>8.64</ele><time>2019-02-14T14:46:17Z</time></trkpt><trkpt lat="52.9010995198" lon="8.444452621"><ele>8.62</ele><time>2019-02-14T14:46:18Z</time></trkpt><trkpt lat="52.9010932334" lon="8.4445362724"><ele>8.64</ele><time>2019-02-14T14:46:19Z</time></trkpt><trkpt lat="52.9011060577" lon="8.444618918"><ele>8.64</ele><time>2019-02-14T14:46:20Z</time></trkpt><trkpt lat="52.9011286888" lon="8.4446978755"><ele>8.69</ele><time>2019-02-14T14:46:21Z</time></trkpt><trkpt lat="52.9011567682" lon="8.4447728097"><ele>8.73</ele><time>2019-02-14T14:46:22Z</time></trkpt><trkpt lat="52.9011887871" lon="8.4448429663"><ele>8.78</ele><time>2019-02-14T14:46:23Z</time></trkpt><trkpt lat="52.9012252484" lon="8.4449062496"><ele>8.87</ele><time>2019-02-14T14:46:24Z</time></trkpt><trkpt lat="52.9012627993" lon="8.4449651744"><ele>8.94</ele><time>2019-02-14T14:46:25Z</time></trkpt><trkpt lat="52.9013338778" lon="8.4450891428"><ele>9.09</ele><time>2019-02-14T14:46:27Z</time></trkpt><trkpt lat="52.9013656452" lon="8.4451541863"><ele>9.15</ele><time>2019-02-14T14:46:28Z</time></trkpt><trkpt lat="52.9013992567" lon="8.4452155419"><ele>9.19</ele><time>2019-02-14T14:46:29Z</time></trkpt><trkpt lat="52.9018575791" lon="8.4460117389"><ele>10.18</ele><time>2019-02-14T14:46:43Z</time></trkpt><trkpt lat="52.9019094631" lon="8.4461690672"><ele>10.41</ele><time>2019-02-14T14:46:46Z</time></trkpt><trkpt lat="52.9018899333" lon="8.4462093003"><ele>10.45</ele><time>2019-02-14T14:46:47Z</time></trkpt><trkpt lat="52.9018594231" lon="8.4462451749"><ele>10.45</ele><time>2019-02-14T14:46:48Z</time></trkpt><trkpt lat="52.9013414215" lon="8.4468377754"><ele>9.17</ele><time>2019-02-14T14:47:01Z</time></trkpt><trkpt lat="52.901191134" lon="8.447084371"><ele>9.2</ele><time>2019-02-14T14:47:07Z</time></trkpt><trkpt lat="52.9011979233" lon="8.4471632447"><ele>9.21</ele><time>2019-02-14T14:47:08Z</time></trkpt><trkpt lat="52.9015726782" lon="8.4481870942"><ele>9.34</ele><time>2019-02-14T14:47:23Z</time></trkpt><trkpt lat="52.9017111473" lon="8.448529914"><ele>9.28</ele><time>2019-02-14T14:47:28Z</time></trkpt><trkpt lat="52.9018171784" lon="8.4488156531"><ele>9.39</ele><time>2019-02-14T14:47:32Z</time></trkpt><trkpt lat="52.9021274764" lon="8.4500568453"><ele>9.64</ele><time>2019-02-14T14:47:48Z</time></trkpt><trkpt lat="52.9021593276" lon="8.4502953943"><ele>9.69</ele><time>2019-02-14T14:47:51Z</time></trkpt><trkpt lat="52.9021843895" lon="8.4504563268"><ele>9.74</ele><time>2019-02-14T14:47:53Z</time></trkpt><trkpt lat="52.9023908358" lon="8.4518111777"><ele>9.81</ele><time>2019-02-14T14:48:10Z</time></trkpt><trkpt lat="52.9025666881" lon="8.4530085325"><ele>10.22</ele><time>2019-02-14T14:48:27Z</time></trkpt><trkpt lat="52.9025951028" lon="8.4529806208"><ele>10.92</ele><time>2019-02-14T14:48:40Z</time></trkpt><trkpt lat="52.9026173148" lon="8.4529672097"><ele>11.01</ele><time>2019-02-14T14:48:41Z</time></trkpt><trkpt lat="52.9026347492" lon="8.4529439919"><ele>11.07</ele><time>2019-02-14T14:48:42Z</time></trkpt><trkpt lat="52.9026427958" lon="8.4529056028"><ele>11.11</ele><time>2019-02-14T14:48:43Z</time></trkpt><trkpt lat="52.9026428796" lon="8.4528532997"><ele>11.1</ele><time>2019-02-14T14:48:44Z</time></trkpt><trkpt lat="52.9026526865" lon="8.4528077021"><ele>11.06</ele><time>2019-02-14T14:48:45Z</time></trkpt><trkpt lat="52.9026762396" lon="8.4527803771"><ele>11.03</ele><time>2019-02-14T14:48:46Z</time></trkpt><trkpt lat="52.9026975296" lon="8.452766547"><ele>11.03</ele><time>2019-02-14T14:48:47Z</time></trkpt><trkpt lat="52.9027144611" lon="8.4527564887"><ele>11.04</ele><time>2019-02-14T14:48:48Z</time></trkpt><trkpt lat="52.9027466476" lon="8.4527797066"><ele>11.82</ele><time>2019-02-14T14:49:01Z</time></trkpt><trkpt lat="52.9027466476" lon="8.4527807124"><ele>-8.53</ele><time>2019-02-14T14:49:03Z</time></trkpt><trkpt lat="52.9027458932" lon="8.4527807124"><ele>-8.53</ele><time>2019-02-14T14:49:04Z</time></trkpt></trkseg></trk></gpx>